<?xml version="1.0" encoding="utf-8"?>
<gpx xmlns:xsi="http://www.w3.org/2001/XMLSchema-instance" xmlns:xsd="http://www.w3.org/2001/XMLSchema" version="1.1" creator="Shapelink.com" xmlns="http://www.topografix.com/GPX/1/1" xmlns:gpxtpx="http://www.garmin.com/xmlschemas/TrackPointExtension/v1">
  <metadata>
    <name>Löpning 8.43 km, 2012-03-12</name>
    <desc></desc>
    <author><name>Dennis Rehn</name></author> 
    <time>2012-03-12T18:24:17Z</time>
  </metadata>
  <trk>
    <name>Löpning 8.43 km, 2012-03-12</name>
    <trkseg>
      <trkpt lat="59.9938337278" lon="23.4265757466">
        <ele>0</ele>
        <time>2012-03-12T18:24:17Z</time>
      </trkpt>
      <trkpt lat="59.9937937461" lon="23.4266537821">
        <ele>0</ele>
        <time>2012-03-12T18:24:19Z</time>
      </trkpt>
      <trkpt lat="59.9937072449" lon="23.4269393534">
        <ele>0</ele>
        <time>2012-03-12T18:24:25Z</time>
      </trkpt>
      <trkpt lat="59.9935990346" lon="23.4269903154">
        <ele>0</ele>
        <time>2012-03-12T18:24:30Z</time>
      </trkpt>
      <trkpt lat="59.9935780798" lon="23.4270256032">
        <ele>0</ele>
        <time>2012-03-12T18:24:31Z</time>
      </trkpt>
      <trkpt lat="59.9934771617" lon="23.4272423591">
        <ele>0</ele>
        <time>2012-03-12T18:24:37Z</time>
      </trkpt>
      <trkpt lat="59.9929666202" lon="23.4274203906">
        <ele>0</ele>
        <time>2012-03-12T18:24:57Z</time>
      </trkpt>
      <trkpt lat="59.992847681" lon="23.4274115058">
        <ele>0</ele>
        <time>2012-03-12T18:25:01Z</time>
      </trkpt>
      <trkpt lat="59.9926877544" lon="23.427382253">
        <ele>0</ele>
        <time>2012-03-12T18:25:07Z</time>
      </trkpt>
      <trkpt lat="59.9925229662" lon="23.4273601248">
        <ele>0</ele>
        <time>2012-03-12T18:25:13Z</time>
      </trkpt>
      <trkpt lat="59.9923834076" lon="23.427335482">
        <ele>0</ele>
        <time>2012-03-12T18:25:17Z</time>
      </trkpt>
      <trkpt lat="59.9922205473" lon="23.4272770602">
        <ele>1.4</ele>
        <time>2012-03-12T18:25:23Z</time>
      </trkpt>
      <trkpt lat="59.9919798191" lon="23.4270279501">
        <ele>5</ele>
        <time>2012-03-12T18:25:33Z</time>
      </trkpt>
      <trkpt lat="59.9918307051" lon="23.4268074223">
        <ele>6.8</ele>
        <time>2012-03-12T18:25:38Z</time>
      </trkpt>
      <trkpt lat="59.9916945831" lon="23.4265868107">
        <ele>8.2</ele>
        <time>2012-03-12T18:25:45Z</time>
      </trkpt>
      <trkpt lat="59.991547816" lon="23.4264293986">
        <ele>9.4</ele>
        <time>2012-03-12T18:25:51Z</time>
      </trkpt>
      <trkpt lat="59.9914160525" lon="23.4263118844">
        <ele>10.6</ele>
        <time>2012-03-12T18:25:56Z</time>
      </trkpt>
      <trkpt lat="59.9913134581" lon="23.4262095414">
        <ele>11</ele>
        <time>2012-03-12T18:26:00Z</time>
      </trkpt>
      <trkpt lat="59.9911674454" lon="23.4261077851">
        <ele>11.4</ele>
        <time>2012-03-12T18:26:05Z</time>
      </trkpt>
      <trkpt lat="59.9910373583" lon="23.4260484412">
        <ele>12.4</ele>
        <time>2012-03-12T18:26:09Z</time>
      </trkpt>
      <trkpt lat="59.9908658646" lon="23.4260015864">
        <ele>13.2</ele>
        <time>2012-03-12T18:26:16Z</time>
      </trkpt>
      <trkpt lat="59.9907106318" lon="23.4259714954">
        <ele>13.6</ele>
        <time>2012-03-12T18:26:21Z</time>
      </trkpt>
      <trkpt lat="59.9905428262" lon="23.4259486128">
        <ele>13.8</ele>
        <time>2012-03-12T18:26:27Z</time>
      </trkpt>
      <trkpt lat="59.9903623639" lon="23.425904524">
        <ele>14</ele>
        <time>2012-03-12T18:26:33Z</time>
      </trkpt>
      <trkpt lat="59.9902128308" lon="23.4258885146">
        <ele>14</ele>
        <time>2012-03-12T18:26:38Z</time>
      </trkpt>
      <trkpt lat="59.9900398284" lon="23.4258773667">
        <ele>14</ele>
        <time>2012-03-12T18:26:44Z</time>
      </trkpt>
      <trkpt lat="59.9898567677" lon="23.4258789592">
        <ele>14.2</ele>
        <time>2012-03-12T18:26:50Z</time>
      </trkpt>
      <trkpt lat="59.9897368227" lon="23.4258640395">
        <ele>14.2</ele>
        <time>2012-03-12T18:26:54Z</time>
      </trkpt>
      <trkpt lat="59.9895124392" lon="23.4258403187">
        <ele>14.2</ele>
        <time>2012-03-12T18:27:01Z</time>
      </trkpt>
      <trkpt lat="59.9893075018" lon="23.4258262371">
        <ele>14.2</ele>
        <time>2012-03-12T18:27:08Z</time>
      </trkpt>
      <trkpt lat="59.9891255307" lon="23.4258043603">
        <ele>15</ele>
        <time>2012-03-12T18:27:14Z</time>
      </trkpt>
      <trkpt lat="59.9889177434" lon="23.4257774544">
        <ele>15.6</ele>
        <time>2012-03-12T18:27:21Z</time>
      </trkpt>
      <trkpt lat="59.9887227804" lon="23.4257497103">
        <ele>16.2</ele>
        <time>2012-03-12T18:27:28Z</time>
      </trkpt>
      <trkpt lat="59.9885319245" lon="23.4257233912">
        <ele>17.2</ele>
        <time>2012-03-12T18:27:35Z</time>
      </trkpt>
      <trkpt lat="59.9883898513" lon="23.4256989998">
        <ele>17.6</ele>
        <time>2012-03-12T18:27:40Z</time>
      </trkpt>
      <trkpt lat="59.9882269072" lon="23.42562021">
        <ele>17.8</ele>
        <time>2012-03-12T18:27:46Z</time>
      </trkpt>
      <trkpt lat="59.9880190361" lon="23.4255720979">
        <ele>18</ele>
        <time>2012-03-12T18:27:53Z</time>
      </trkpt>
      <trkpt lat="59.9878357239" lon="23.4255477904">
        <ele>18.2</ele>
        <time>2012-03-12T18:27:59Z</time>
      </trkpt>
      <trkpt lat="59.9876576086" lon="23.4254889494">
        <ele>18.2</ele>
        <time>2012-03-12T18:28:05Z</time>
      </trkpt>
      <trkpt lat="59.9875172117" lon="23.4254607024">
        <ele>18.2</ele>
        <time>2012-03-12T18:28:10Z</time>
      </trkpt>
      <trkpt lat="59.9873762282" lon="23.4254052142">
        <ele>17.4</ele>
        <time>2012-03-12T18:28:15Z</time>
      </trkpt>
      <trkpt lat="59.9872634078" lon="23.4253885343">
        <ele>17</ele>
        <time>2012-03-12T18:28:19Z</time>
      </trkpt>
      <trkpt lat="59.987067439" lon="23.4252711038">
        <ele>16.6</ele>
        <time>2012-03-12T18:28:26Z</time>
      </trkpt>
      <trkpt lat="59.9868749067" lon="23.4251706049">
        <ele>16.4</ele>
        <time>2012-03-12T18:28:33Z</time>
      </trkpt>
      <trkpt lat="59.986709448" lon="23.4250993587">
        <ele>16.2</ele>
        <time>2012-03-12T18:28:39Z</time>
      </trkpt>
      <trkpt lat="59.9865200171" lon="23.4250365783">
        <ele>16.2</ele>
        <time>2012-03-12T18:28:46Z</time>
      </trkpt>
      <trkpt lat="59.9864021676" lon="23.4250109297">
        <ele>16.2</ele>
        <time>2012-03-12T18:28:50Z</time>
      </trkpt>
      <trkpt lat="59.9862605973" lon="23.4250097562">
        <ele>16.2</ele>
        <time>2012-03-12T18:28:55Z</time>
      </trkpt>
      <trkpt lat="59.9860727589" lon="23.4250190601">
        <ele>16.2</ele>
        <time>2012-03-12T18:29:01Z</time>
      </trkpt>
      <trkpt lat="59.9859450187" lon="23.4250250113">
        <ele>16.2</ele>
        <time>2012-03-12T18:29:06Z</time>
      </trkpt>
      <trkpt lat="59.9857705076" lon="23.4250395958">
        <ele>16.2</ele>
        <time>2012-03-12T18:29:12Z</time>
      </trkpt>
      <trkpt lat="59.9856294402" lon="23.4250380032">
        <ele>16.2</ele>
        <time>2012-03-12T18:29:17Z</time>
      </trkpt>
      <trkpt lat="59.9854814159" lon="23.4250596285">
        <ele>16.2</ele>
        <time>2012-03-12T18:29:22Z</time>
      </trkpt>
      <trkpt lat="59.9853493171" lon="23.4250577007">
        <ele>16.2</ele>
        <time>2012-03-12T18:29:26Z</time>
      </trkpt>
      <trkpt lat="59.9852438728" lon="23.4250614725">
        <ele>16.2</ele>
        <time>2012-03-12T18:29:29Z</time>
      </trkpt>
      <trkpt lat="59.9850712895" lon="23.425060802">
        <ele>16.2</ele>
        <time>2012-03-12T18:29:35Z</time>
      </trkpt>
      <trkpt lat="59.9849018913" lon="23.425049654">
        <ele>16.2</ele>
        <time>2012-03-12T18:29:41Z</time>
      </trkpt>
      <trkpt lat="59.9847387795" lon="23.4250618078">
        <ele>16.2</ele>
        <time>2012-03-12T18:29:47Z</time>
      </trkpt>
      <trkpt lat="59.9846291443" lon="23.4250822596">
        <ele>16.2</ele>
        <time>2012-03-12T18:29:51Z</time>
      </trkpt>
      <trkpt lat="59.9844914297" lon="23.4252008635">
        <ele>16.2</ele>
        <time>2012-03-12T18:29:57Z</time>
      </trkpt>
      <trkpt lat="59.9842965505" lon="23.4251784838">
        <ele>15.2</ele>
        <time>2012-03-12T18:30:04Z</time>
      </trkpt>
      <trkpt lat="59.9842444151" lon="23.4251906376">
        <ele>15</ele>
        <time>2012-03-12T18:30:06Z</time>
      </trkpt>
      <trkpt lat="59.9840902719" lon="23.425350229">
        <ele>14.6</ele>
        <time>2012-03-12T18:30:13Z</time>
      </trkpt>
      <trkpt lat="59.9839569997" lon="23.4253666575">
        <ele>13.6</ele>
        <time>2012-03-12T18:30:18Z</time>
      </trkpt>
      <trkpt lat="59.9839147549" lon="23.4253429367">
        <ele>13.4</ele>
        <time>2012-03-12T18:30:20Z</time>
      </trkpt>
      <trkpt lat="59.9839159284" lon="23.4250452116">
        <ele>12.8</ele>
        <time>2012-03-12T18:30:26Z</time>
      </trkpt>
      <trkpt lat="59.9839289203" lon="23.4248386816">
        <ele>12.4</ele>
        <time>2012-03-12T18:30:32Z</time>
      </trkpt>
      <trkpt lat="59.9839924551" lon="23.4241791937">
        <ele>12.2</ele>
        <time>2012-03-12T18:30:43Z</time>
      </trkpt>
      <trkpt lat="59.9840393938" lon="23.4238159222">
        <ele>12.2</ele>
        <time>2012-03-12T18:30:50Z</time>
      </trkpt>
      <trkpt lat="59.9840760227" lon="23.4235301832">
        <ele>12</ele>
        <time>2012-03-12T18:30:55Z</time>
      </trkpt>
      <trkpt lat="59.984121704" lon="23.4231487229">
        <ele>12</ele>
        <time>2012-03-12T18:31:01Z</time>
      </trkpt>
      <trkpt lat="59.9841836463" lon="23.4228015446">
        <ele>12.4</ele>
        <time>2012-03-12T18:31:07Z</time>
      </trkpt>
      <trkpt lat="59.9842294115" lon="23.4224407877">
        <ele>13.2</ele>
        <time>2012-03-12T18:31:13Z</time>
      </trkpt>
      <trkpt lat="59.9842641963" lon="23.4221364409">
        <ele>13.6</ele>
        <time>2012-03-12T18:31:18Z</time>
      </trkpt>
      <trkpt lat="59.984294455" lon="23.4219144044">
        <ele>13.8</ele>
        <time>2012-03-12T18:31:22Z</time>
      </trkpt>
      <trkpt lat="59.9843274797" lon="23.4216382207">
        <ele>14</ele>
        <time>2012-03-12T18:31:27Z</time>
      </trkpt>
      <trkpt lat="59.9844010728" lon="23.4212669026">
        <ele>14.4</ele>
        <time>2012-03-12T18:31:34Z</time>
      </trkpt>
      <trkpt lat="59.9844849756" lon="23.4209478036">
        <ele>15.2</ele>
        <time>2012-03-12T18:31:40Z</time>
      </trkpt>
      <trkpt lat="59.9845614185" lon="23.4206146231">
        <ele>15.6</ele>
        <time>2012-03-12T18:31:46Z</time>
      </trkpt>
      <trkpt lat="59.9845909228" lon="23.4204536906">
        <ele>15.8</ele>
        <time>2012-03-12T18:31:49Z</time>
      </trkpt>
      <trkpt lat="59.9845882406" lon="23.4204086798">
        <ele>15.8</ele>
        <time>2012-03-12T18:31:51Z</time>
      </trkpt>
      <trkpt lat="59.9846160685" lon="23.4203479111">
        <ele>16</ele>
        <time>2012-03-12T18:32:00Z</time>
      </trkpt>
      <trkpt lat="59.9846683716" lon="23.4201369386">
        <ele>16</ele>
        <time>2012-03-12T18:32:04Z</time>
      </trkpt>
      <trkpt lat="59.9847050843" lon="23.4197365353">
        <ele>16.2</ele>
        <time>2012-03-12T18:32:10Z</time>
      </trkpt>
      <trkpt lat="59.9847490054" lon="23.4193801369">
        <ele>16.2</ele>
        <time>2012-03-12T18:32:16Z</time>
      </trkpt>
      <trkpt lat="59.9847463232" lon="23.4191389058">
        <ele>16.2</ele>
        <time>2012-03-12T18:32:20Z</time>
      </trkpt>
      <trkpt lat="59.9847397015" lon="23.4189157796">
        <ele>16.2</ele>
        <time>2012-03-12T18:32:24Z</time>
      </trkpt>
      <trkpt lat="59.9847576388" lon="23.4182045754">
        <ele>16.2</ele>
        <time>2012-03-12T18:32:36Z</time>
      </trkpt>
      <trkpt lat="59.9847744864" lon="23.4178251268">
        <ele>16.2</ele>
        <time>2012-03-12T18:32:43Z</time>
      </trkpt>
      <trkpt lat="59.9847849638" lon="23.4174150843">
        <ele>16.2</ele>
        <time>2012-03-12T18:32:50Z</time>
      </trkpt>
      <trkpt lat="59.9847965308" lon="23.4170321991">
        <ele>16.2</ele>
        <time>2012-03-12T18:32:57Z</time>
      </trkpt>
      <trkpt lat="59.9848152224" lon="23.4165968432">
        <ele>16.2</ele>
        <time>2012-03-12T18:33:04Z</time>
      </trkpt>
      <trkpt lat="59.9848268733" lon="23.4162514251">
        <ele>16.2</ele>
        <time>2012-03-12T18:33:10Z</time>
      </trkpt>
      <trkpt lat="59.9848045774" lon="23.415895362">
        <ele>16.2</ele>
        <time>2012-03-12T18:33:16Z</time>
      </trkpt>
      <trkpt lat="59.9847749055" lon="23.4154947071">
        <ele>16.2</ele>
        <time>2012-03-12T18:33:23Z</time>
      </trkpt>
      <trkpt lat="59.9847285536" lon="23.4151200362">
        <ele>16.2</ele>
        <time>2012-03-12T18:33:30Z</time>
      </trkpt>
      <trkpt lat="59.9846842972" lon="23.4148442717">
        <ele>16.2</ele>
        <time>2012-03-12T18:33:35Z</time>
      </trkpt>
      <trkpt lat="59.9846494285" lon="23.4145784817">
        <ele>16.2</ele>
        <time>2012-03-12T18:33:40Z</time>
      </trkpt>
      <trkpt lat="59.9846391187" lon="23.4143298745">
        <ele>16.2</ele>
        <time>2012-03-12T18:33:45Z</time>
      </trkpt>
      <trkpt lat="59.9846188345" lon="23.4138983743">
        <ele>16.2</ele>
        <time>2012-03-12T18:33:52Z</time>
      </trkpt>
      <trkpt lat="59.9846165714" lon="23.4136445704">
        <ele>17</ele>
        <time>2012-03-12T18:33:57Z</time>
      </trkpt>
      <trkpt lat="59.984596371" lon="23.4132998228">
        <ele>17.6</ele>
        <time>2012-03-12T18:34:03Z</time>
      </trkpt>
      <trkpt lat="59.9845885759" lon="23.4128932168">
        <ele>18</ele>
        <time>2012-03-12T18:34:10Z</time>
      </trkpt>
      <trkpt lat="59.9845772603" lon="23.4125477987">
        <ele>19</ele>
        <time>2012-03-12T18:34:16Z</time>
      </trkpt>
      <trkpt lat="59.9845709739" lon="23.412234651">
        <ele>19.6</ele>
        <time>2012-03-12T18:34:21Z</time>
      </trkpt>
      <trkpt lat="59.9845570599" lon="23.4118597286">
        <ele>20</ele>
        <time>2012-03-12T18:34:28Z</time>
      </trkpt>
      <trkpt lat="59.9845357699" lon="23.4114610016">
        <ele>20.2</ele>
        <time>2012-03-12T18:34:35Z</time>
      </trkpt>
      <trkpt lat="59.9845207663" lon="23.4111096323">
        <ele>20.2</ele>
        <time>2012-03-12T18:34:41Z</time>
      </trkpt>
      <trkpt lat="59.9845019908" lon="23.4108419145">
        <ele>20.2</ele>
        <time>2012-03-12T18:34:46Z</time>
      </trkpt>
      <trkpt lat="59.984499141" lon="23.4107861748">
        <ele>20.2</ele>
        <time>2012-03-12T18:34:47Z</time>
      </trkpt>
      <trkpt lat="59.9844828801" lon="23.4106294333">
        <ele>20.4</ele>
        <time>2012-03-12T18:34:51Z</time>
      </trkpt>
      <trkpt lat="59.9845117138" lon="23.4108311856">
        <ele>20.4</ele>
        <time>2012-03-12T18:34:55Z</time>
      </trkpt>
      <trkpt lat="59.9845491809" lon="23.4112145737">
        <ele>20.4</ele>
        <time>2012-03-12T18:35:01Z</time>
      </trkpt>
      <trkpt lat="59.9845705548" lon="23.4115627579">
        <ele>20.4</ele>
        <time>2012-03-12T18:35:07Z</time>
      </trkpt>
      <trkpt lat="59.9846046691" lon="23.4119615687">
        <ele>20.4</ele>
        <time>2012-03-12T18:35:14Z</time>
      </trkpt>
      <trkpt lat="59.984619086" lon="23.4122645743">
        <ele>20.4</ele>
        <time>2012-03-12T18:35:19Z</time>
      </trkpt>
      <trkpt lat="59.9846323294" lon="23.4126284326">
        <ele>19.8</ele>
        <time>2012-03-12T18:35:26Z</time>
      </trkpt>
      <trkpt lat="59.9846428906" lon="23.4129903631">
        <ele>19</ele>
        <time>2012-03-12T18:35:32Z</time>
      </trkpt>
      <trkpt lat="59.9846577265" lon="23.4133572388">
        <ele>18.6</ele>
        <time>2012-03-12T18:35:39Z</time>
      </trkpt>
      <trkpt lat="59.9846832075" lon="23.4136909223">
        <ele>18.6</ele>
        <time>2012-03-12T18:35:44Z</time>
      </trkpt>
      <trkpt lat="59.9846942716" lon="23.4140551996">
        <ele>17.4</ele>
        <time>2012-03-12T18:35:51Z</time>
      </trkpt>
      <trkpt lat="59.9846957804" lon="23.4143030524">
        <ele>17</ele>
        <time>2012-03-12T18:35:55Z</time>
      </trkpt>
      <trkpt lat="59.9847060901" lon="23.4146635579">
        <ele>16.8</ele>
        <time>2012-03-12T18:36:01Z</time>
      </trkpt>
      <trkpt lat="59.9847586446" lon="23.4149929666">
        <ele>16.6</ele>
        <time>2012-03-12T18:36:07Z</time>
      </trkpt>
      <trkpt lat="59.9848095228" lon="23.4153899334">
        <ele>15.6</ele>
        <time>2012-03-12T18:36:14Z</time>
      </trkpt>
      <trkpt lat="59.9848631669" lon="23.4157713937">
        <ele>15</ele>
        <time>2012-03-12T18:36:20Z</time>
      </trkpt>
      <trkpt lat="59.9848678608" lon="23.4161357549">
        <ele>14.6</ele>
        <time>2012-03-12T18:36:26Z</time>
      </trkpt>
      <trkpt lat="59.9848596465" lon="23.4164957575">
        <ele>13.6</ele>
        <time>2012-03-12T18:36:32Z</time>
      </trkpt>
      <trkpt lat="59.9848489177" lon="23.4168674947">
        <ele>12.8</ele>
        <time>2012-03-12T18:36:39Z</time>
      </trkpt>
      <trkpt lat="59.9848417093" lon="23.4171932154">
        <ele>12.6</ele>
        <time>2012-03-12T18:36:44Z</time>
      </trkpt>
      <trkpt lat="59.9848293879" lon="23.4175794533">
        <ele>12.4</ele>
        <time>2012-03-12T18:36:51Z</time>
      </trkpt>
      <trkpt lat="59.9848201678" lon="23.4178714787">
        <ele>12.4</ele>
        <time>2012-03-12T18:36:56Z</time>
      </trkpt>
      <trkpt lat="59.984815893" lon="23.4181890689">
        <ele>12.2</ele>
        <time>2012-03-12T18:37:02Z</time>
      </trkpt>
      <trkpt lat="59.9848060024" lon="23.4185612253">
        <ele>12.2</ele>
        <time>2012-03-12T18:37:09Z</time>
      </trkpt>
      <trkpt lat="59.9848032363" lon="23.4187469682">
        <ele>12.2</ele>
        <time>2012-03-12T18:37:13Z</time>
      </trkpt>
      <trkpt lat="59.98481078" lon="23.4191056297">
        <ele>12.2</ele>
        <time>2012-03-12T18:37:19Z</time>
      </trkpt>
      <trkpt lat="59.9848094389" lon="23.4196293308">
        <ele>12.2</ele>
        <time>2012-03-12T18:37:28Z</time>
      </trkpt>
      <trkpt lat="59.9847561301" lon="23.4200808637">
        <ele>12.2</ele>
        <time>2012-03-12T18:37:36Z</time>
      </trkpt>
      <trkpt lat="59.9847086047" lon="23.4204531877">
        <ele>12.2</ele>
        <time>2012-03-12T18:37:43Z</time>
      </trkpt>
      <trkpt lat="59.9846918409" lon="23.4205334025">
        <ele>12.2</ele>
        <time>2012-03-12T18:37:48Z</time>
      </trkpt>
      <trkpt lat="59.9846626719" lon="23.4206429539">
        <ele>12.2</ele>
        <time>2012-03-12T18:37:56Z</time>
      </trkpt>
      <trkpt lat="59.9845837982" lon="23.4209799901">
        <ele>12.2</ele>
        <time>2012-03-12T18:38:03Z</time>
      </trkpt>
      <trkpt lat="59.9845140608" lon="23.4213061299">
        <ele>12.2</ele>
        <time>2012-03-12T18:38:09Z</time>
      </trkpt>
      <trkpt lat="59.9844635179" lon="23.4216032682">
        <ele>12.2</ele>
        <time>2012-03-12T18:38:14Z</time>
      </trkpt>
      <trkpt lat="59.9844095385" lon="23.421947429">
        <ele>12.2</ele>
        <time>2012-03-12T18:38:20Z</time>
      </trkpt>
      <trkpt lat="59.9843510328" lon="23.4223187472">
        <ele>12.2</ele>
        <time>2012-03-12T18:38:27Z</time>
      </trkpt>
      <trkpt lat="59.9842003263" lon="23.4231090766">
        <ele>13.6</ele>
        <time>2012-03-12T18:38:41Z</time>
      </trkpt>
      <trkpt lat="59.9841346122" lon="23.4234435144">
        <ele>13.8</ele>
        <time>2012-03-12T18:38:47Z</time>
      </trkpt>
      <trkpt lat="59.9840573311" lon="23.4238247232">
        <ele>14</ele>
        <time>2012-03-12T18:38:54Z</time>
      </trkpt>
      <trkpt lat="59.9840362087" lon="23.4239170079">
        <ele>14.2</ele>
        <time>2012-03-12T18:38:58Z</time>
      </trkpt>
      <trkpt lat="59.9840315148" lon="23.4238872522">
        <ele>14.2</ele>
        <time>2012-03-12T18:39:04Z</time>
      </trkpt>
      <trkpt lat="59.9840297546" lon="23.423877613">
        <ele>14.2</ele>
        <time>2012-03-12T18:39:15Z</time>
      </trkpt>
      <trkpt lat="59.9840455964" lon="23.4239092127">
        <ele>14.2</ele>
        <time>2012-03-12T18:39:25Z</time>
      </trkpt>
      <trkpt lat="59.9840409863" lon="23.423920193">
        <ele>14.2</ele>
        <time>2012-03-12T18:39:36Z</time>
      </trkpt>
      <trkpt lat="59.9840310119" lon="23.4238730867">
        <ele>14.2</ele>
        <time>2012-03-12T18:39:53Z</time>
      </trkpt>
      <trkpt lat="59.9840550679" lon="23.4238615197">
        <ele>14.2</ele>
        <time>2012-03-12T18:40:13Z</time>
      </trkpt>
      <trkpt lat="59.9840397291" lon="23.4238805466">
        <ele>14.2</ele>
        <time>2012-03-12T18:40:35Z</time>
      </trkpt>
      <trkpt lat="59.9840205345" lon="23.4239364539">
        <ele>14.2</ele>
        <time>2012-03-12T18:40:38Z</time>
      </trkpt>
      <trkpt lat="59.9840056147" lon="23.4240390484">
        <ele>14.2</ele>
        <time>2012-03-12T18:40:43Z</time>
      </trkpt>
      <trkpt lat="59.9840077102" lon="23.4240806226">
        <ele>14.2</ele>
        <time>2012-03-12T18:40:45Z</time>
      </trkpt>
      <trkpt lat="59.9840379689" lon="23.4239941214">
        <ele>14.2</ele>
        <time>2012-03-12T18:40:57Z</time>
      </trkpt>
      <trkpt lat="59.9840592589" lon="23.423850288">
        <ele>14.2</ele>
        <time>2012-03-12T18:41:04Z</time>
      </trkpt>
      <trkpt lat="59.9840588398" lon="23.4238403135">
        <ele>14.2</ele>
        <time>2012-03-12T18:41:10Z</time>
      </trkpt>
      <trkpt lat="59.9840585883" lon="23.4238398944">
        <ele>14.2</ele>
        <time>2012-03-12T18:41:14Z</time>
      </trkpt>
      <trkpt lat="59.98406521" lon="23.4238400621">
        <ele>14.2</ele>
        <time>2012-03-12T18:41:21Z</time>
      </trkpt>
      <trkpt lat="59.9840476919" lon="23.4238239688">
        <ele>13.6</ele>
        <time>2012-03-12T18:41:28Z</time>
      </trkpt>
      <trkpt lat="59.984054565" lon="23.4238316802">
        <ele>12.4</ele>
        <time>2012-03-12T18:41:44Z</time>
      </trkpt>
      <trkpt lat="59.9841034315" lon="23.4235149282">
        <ele>12.4</ele>
        <time>2012-03-12T18:41:49Z</time>
      </trkpt>
      <trkpt lat="59.9841643679" lon="23.4231068973">
        <ele>12.4</ele>
        <time>2012-03-12T18:41:54Z</time>
      </trkpt>
      <trkpt lat="59.9842170901" lon="23.4226730501">
        <ele>12.2</ele>
        <time>2012-03-12T18:41:59Z</time>
      </trkpt>
      <trkpt lat="59.9842675491" lon="23.4222588166">
        <ele>12.2</ele>
        <time>2012-03-12T18:42:04Z</time>
      </trkpt>
      <trkpt lat="59.9842783618" lon="23.4221786857">
        <ele>12.2</ele>
        <time>2012-03-12T18:42:05Z</time>
      </trkpt>
      <trkpt lat="59.9843156612" lon="23.4218539709">
        <ele>12.2</ele>
        <time>2012-03-12T18:42:09Z</time>
      </trkpt>
      <trkpt lat="59.9843575707" lon="23.421527412">
        <ele>12.2</ele>
        <time>2012-03-12T18:42:13Z</time>
      </trkpt>
      <trkpt lat="59.9843796151" lon="23.4213668986">
        <ele>12.2</ele>
        <time>2012-03-12T18:42:15Z</time>
      </trkpt>
      <trkpt lat="59.9844642723" lon="23.4208941595">
        <ele>12.2</ele>
        <time>2012-03-12T18:42:21Z</time>
      </trkpt>
      <trkpt lat="59.9844985543" lon="23.420723504">
        <ele>12.2</ele>
        <time>2012-03-12T18:42:23Z</time>
      </trkpt>
      <trkpt lat="59.9845518632" lon="23.4205111067">
        <ele>12.6</ele>
        <time>2012-03-12T18:42:26Z</time>
      </trkpt>
      <trkpt lat="59.984595449" lon="23.4203114498">
        <ele>12.8</ele>
        <time>2012-03-12T18:42:29Z</time>
      </trkpt>
      <trkpt lat="59.9846223549" lon="23.4202198356">
        <ele>13.2</ele>
        <time>2012-03-12T18:42:33Z</time>
      </trkpt>
      <trkpt lat="59.9846275517" lon="23.4202116214">
        <ele>13.4</ele>
        <time>2012-03-12T18:42:34Z</time>
      </trkpt>
      <trkpt lat="59.9846235284" lon="23.4202695403">
        <ele>13.8</ele>
        <time>2012-03-12T18:42:39Z</time>
      </trkpt>
      <trkpt lat="59.9846140568" lon="23.4203813548">
        <ele>14</ele>
        <time>2012-03-12T18:42:45Z</time>
      </trkpt>
      <trkpt lat="59.9845930183" lon="23.4205990328">
        <ele>14</ele>
        <time>2012-03-12T18:42:48Z</time>
      </trkpt>
      <trkpt lat="59.9845193414" lon="23.4209431936">
        <ele>14.2</ele>
        <time>2012-03-12T18:42:52Z</time>
      </trkpt>
      <trkpt lat="59.9844480952" lon="23.4213110752">
        <ele>14.2</ele>
        <time>2012-03-12T18:42:56Z</time>
      </trkpt>
      <trkpt lat="59.984394954" lon="23.4216702396">
        <ele>14.2</ele>
        <time>2012-03-12T18:43:00Z</time>
      </trkpt>
      <trkpt lat="59.9843813753" lon="23.421767302">
        <ele>14.2</ele>
        <time>2012-03-12T18:43:01Z</time>
      </trkpt>
      <trkpt lat="59.984323624" lon="23.4221341778">
        <ele>14.2</ele>
        <time>2012-03-12T18:43:05Z</time>
      </trkpt>
      <trkpt lat="59.984308369" lon="23.4222297314">
        <ele>14.2</ele>
        <time>2012-03-12T18:43:06Z</time>
      </trkpt>
      <trkpt lat="59.9842859893" lon="23.4224167316">
        <ele>14.2</ele>
        <time>2012-03-12T18:43:08Z</time>
      </trkpt>
      <trkpt lat="59.9842289085" lon="23.4227742197">
        <ele>14.2</ele>
        <time>2012-03-12T18:43:12Z</time>
      </trkpt>
      <trkpt lat="59.9841526333" lon="23.4232315361">
        <ele>14.2</ele>
        <time>2012-03-12T18:43:17Z</time>
      </trkpt>
      <trkpt lat="59.9841366238" lon="23.4233236532">
        <ele>14.2</ele>
        <time>2012-03-12T18:43:18Z</time>
      </trkpt>
      <trkpt lat="59.9841223746" lon="23.4234112441">
        <ele>14.2</ele>
        <time>2012-03-12T18:43:19Z</time>
      </trkpt>
      <trkpt lat="59.9840353705" lon="23.4238550657">
        <ele>14.2</ele>
        <time>2012-03-12T18:43:24Z</time>
      </trkpt>
      <trkpt lat="59.9840141643" lon="23.4239859071">
        <ele>14.2</ele>
        <time>2012-03-12T18:43:26Z</time>
      </trkpt>
      <trkpt lat="59.9839995798" lon="23.4240400542">
        <ele>14.2</ele>
        <time>2012-03-12T18:43:29Z</time>
      </trkpt>
      <trkpt lat="59.9840182714" lon="23.4239258089">
        <ele>14.2</ele>
        <time>2012-03-12T18:43:35Z</time>
      </trkpt>
      <trkpt lat="59.9840243902" lon="23.423923462">
        <ele>14.2</ele>
        <time>2012-03-12T18:43:53Z</time>
      </trkpt>
      <trkpt lat="59.9840529725" lon="23.4239082069">
        <ele>14.2</ele>
        <time>2012-03-12T18:44:11Z</time>
      </trkpt>
      <trkpt lat="59.9840572472" lon="23.4239153315">
        <ele>14.2</ele>
        <time>2012-03-12T18:44:23Z</time>
      </trkpt>
      <trkpt lat="59.9840917807" lon="23.4237336957">
        <ele>14.2</ele>
        <time>2012-03-12T18:44:32Z</time>
      </trkpt>
      <trkpt lat="59.9841446704" lon="23.4233171991">
        <ele>14.2</ele>
        <time>2012-03-12T18:44:36Z</time>
      </trkpt>
      <trkpt lat="59.9841993204" lon="23.4229008702">
        <ele>14.2</ele>
        <time>2012-03-12T18:44:40Z</time>
      </trkpt>
      <trkpt lat="59.9842508691" lon="23.4224880616">
        <ele>14.2</ele>
        <time>2012-03-12T18:44:44Z</time>
      </trkpt>
      <trkpt lat="59.9843052677" lon="23.4220844731">
        <ele>14.2</ele>
        <time>2012-03-12T18:44:48Z</time>
      </trkpt>
      <trkpt lat="59.9843553914" lon="23.4216849917">
        <ele>15</ele>
        <time>2012-03-12T18:44:52Z</time>
      </trkpt>
      <trkpt lat="59.9843965465" lon="23.4212746139">
        <ele>15.4</ele>
        <time>2012-03-12T18:44:56Z</time>
      </trkpt>
      <trkpt lat="59.9844119692" lon="23.4211773001">
        <ele>15.6</ele>
        <time>2012-03-12T18:44:57Z</time>
      </trkpt>
      <trkpt lat="59.984500985" lon="23.4208122683">
        <ele>15.8</ele>
        <time>2012-03-12T18:45:01Z</time>
      </trkpt>
      <trkpt lat="59.9845459958" lon="23.4206367513">
        <ele>15.8</ele>
        <time>2012-03-12T18:45:03Z</time>
      </trkpt>
      <trkpt lat="59.9846034957" lon="23.4203110307">
        <ele>16</ele>
        <time>2012-03-12T18:45:07Z</time>
      </trkpt>
      <trkpt lat="59.984625121" lon="23.4202417124">
        <ele>16.2</ele>
        <time>2012-03-12T18:45:12Z</time>
      </trkpt>
      <trkpt lat="59.9846213491" lon="23.4203429657">
        <ele>16.2</ele>
        <time>2012-03-12T18:45:17Z</time>
      </trkpt>
      <trkpt lat="59.9846552958" lon="23.420378505">
        <ele>16.2</ele>
        <time>2012-03-12T18:45:28Z</time>
      </trkpt>
      <trkpt lat="59.9846555473" lon="23.4204142957">
        <ele>16.2</ele>
        <time>2012-03-12T18:45:33Z</time>
      </trkpt>
      <trkpt lat="59.9846631748" lon="23.4204569596">
        <ele>14.6</ele>
        <time>2012-03-12T18:45:49Z</time>
      </trkpt>
      <trkpt lat="59.9846503505" lon="23.420478082">
        <ele>14.6</ele>
        <time>2012-03-12T18:45:52Z</time>
      </trkpt>
      <trkpt lat="59.9846615822" lon="23.4204829435">
        <ele>14.4</ele>
        <time>2012-03-12T18:45:56Z</time>
      </trkpt>
      <trkpt lat="59.9846489256" lon="23.4204885593">
        <ele>14.4</ele>
        <time>2012-03-12T18:45:59Z</time>
      </trkpt>
      <trkpt lat="59.9846186669" lon="23.4206649983">
        <ele>14.4</ele>
        <time>2012-03-12T18:46:12Z</time>
      </trkpt>
      <trkpt lat="59.9845507735" lon="23.4210288566">
        <ele>13.6</ele>
        <time>2012-03-12T18:46:16Z</time>
      </trkpt>
      <trkpt lat="59.9844764261" lon="23.4214109036">
        <ele>13.2</ele>
        <time>2012-03-12T18:46:20Z</time>
      </trkpt>
      <trkpt lat="59.9844553037" lon="23.4215103968">
        <ele>13</ele>
        <time>2012-03-12T18:46:21Z</time>
      </trkpt>
      <trkpt lat="59.9844392104" lon="23.4216018433">
        <ele>13</ele>
        <time>2012-03-12T18:46:22Z</time>
      </trkpt>
      <trkpt lat="59.9843695568" lon="23.4221020751">
        <ele>12.6</ele>
        <time>2012-03-12T18:46:27Z</time>
      </trkpt>
      <trkpt lat="59.9843050162" lon="23.4224914143">
        <ele>12.6</ele>
        <time>2012-03-12T18:46:31Z</time>
      </trkpt>
      <trkpt lat="59.984280541" lon="23.4226859582">
        <ele>12.4</ele>
        <time>2012-03-12T18:46:33Z</time>
      </trkpt>
      <trkpt lat="59.9842015835" lon="23.4231721084">
        <ele>12.4</ele>
        <time>2012-03-12T18:46:38Z</time>
      </trkpt>
      <trkpt lat="59.9841344445" lon="23.4235553289">
        <ele>12.4</ele>
        <time>2012-03-12T18:46:42Z</time>
      </trkpt>
      <trkpt lat="59.9840697363" lon="23.4239277367">
        <ele>13</ele>
        <time>2012-03-12T18:46:46Z</time>
      </trkpt>
      <trkpt lat="59.9840512961" lon="23.4240353603">
        <ele>13.2</ele>
        <time>2012-03-12T18:46:48Z</time>
      </trkpt>
      <trkpt lat="59.9840503741" lon="23.4240014136">
        <ele>13.6</ele>
        <time>2012-03-12T18:46:52Z</time>
      </trkpt>
      <trkpt lat="59.9840528886" lon="23.4239840631">
        <ele>13.8</ele>
        <time>2012-03-12T18:46:53Z</time>
      </trkpt>
      <trkpt lat="59.9840487815" lon="23.423941483">
        <ele>14.2</ele>
        <time>2012-03-12T18:47:04Z</time>
      </trkpt>
      <trkpt lat="59.9840437524" lon="23.4238994897">
        <ele>14</ele>
        <time>2012-03-12T18:47:29Z</time>
      </trkpt>
      <trkpt lat="59.9840364601" lon="23.4239149962">
        <ele>12.8</ele>
        <time>2012-03-12T18:47:42Z</time>
      </trkpt>
      <trkpt lat="59.9840349514" lon="23.423912314">
        <ele>12.8</ele>
        <time>2012-03-12T18:47:43Z</time>
      </trkpt>
      <trkpt lat="59.9840469375" lon="23.4238759366">
        <ele>12.6</ele>
        <time>2012-03-12T18:47:49Z</time>
      </trkpt>
      <trkpt lat="59.9840567443" lon="23.4238647887">
        <ele>12.6</ele>
        <time>2012-03-12T18:47:50Z</time>
      </trkpt>
      <trkpt lat="59.9841106399" lon="23.4235212984">
        <ele>12.4</ele>
        <time>2012-03-12T18:47:54Z</time>
      </trkpt>
      <trkpt lat="59.9841247215" lon="23.4234192907">
        <ele>12.4</ele>
        <time>2012-03-12T18:47:55Z</time>
      </trkpt>
      <trkpt lat="59.9841688103" lon="23.4230978448">
        <ele>12.4</ele>
        <time>2012-03-12T18:47:58Z</time>
      </trkpt>
      <trkpt lat="59.9841800421" lon="23.4229913109">
        <ele>12.4</ele>
        <time>2012-03-12T18:47:59Z</time>
      </trkpt>
      <trkpt lat="59.9842441636" lon="23.4225852078">
        <ele>12.4</ele>
        <time>2012-03-12T18:48:03Z</time>
      </trkpt>
      <trkpt lat="59.9842765177" lon="23.4222725629">
        <ele>12.4</ele>
        <time>2012-03-12T18:48:06Z</time>
      </trkpt>
      <trkpt lat="59.9843206065" lon="23.4219842256">
        <ele>12.4</ele>
        <time>2012-03-12T18:48:09Z</time>
      </trkpt>
      <trkpt lat="59.984380118" lon="23.4214745222">
        <ele>12.4</ele>
        <time>2012-03-12T18:48:14Z</time>
      </trkpt>
      <trkpt lat="59.9843934452" lon="23.4213750291">
        <ele>12.4</ele>
        <time>2012-03-12T18:48:15Z</time>
      </trkpt>
      <trkpt lat="59.9844709778" lon="23.420905475">
        <ele>12.6</ele>
        <time>2012-03-12T18:48:20Z</time>
      </trkpt>
      <trkpt lat="59.9845217721" lon="23.4206117733">
        <ele>13</ele>
        <time>2012-03-12T18:48:23Z</time>
      </trkpt>
      <trkpt lat="59.9845755839" lon="23.4202994637">
        <ele>13.6</ele>
        <time>2012-03-12T18:48:27Z</time>
      </trkpt>
      <trkpt lat="59.9845916772" lon="23.4202641759">
        <ele>13.6</ele>
        <time>2012-03-12T18:48:28Z</time>
      </trkpt>
      <trkpt lat="59.9845964549" lon="23.4202623319">
        <ele>14</ele>
        <time>2012-03-12T18:48:34Z</time>
      </trkpt>
      <trkpt lat="59.9846371909" lon="23.4202436402">
        <ele>13.8</ele>
        <time>2012-03-12T18:48:46Z</time>
      </trkpt>
      <trkpt lat="59.9846484226" lon="23.4202297263">
        <ele>13.2</ele>
        <time>2012-03-12T18:48:51Z</time>
      </trkpt>
      <trkpt lat="59.9846470815" lon="23.4202896569">
        <ele>12.8</ele>
        <time>2012-03-12T18:48:57Z</time>
      </trkpt>
      <trkpt lat="59.9846590677" lon="23.4202297263">
        <ele>11.8</ele>
        <time>2012-03-12T18:49:03Z</time>
      </trkpt>
      <trkpt lat="59.9846629233" lon="23.4202003058">
        <ele>11</ele>
        <time>2012-03-12T18:49:09Z</time>
      </trkpt>
      <trkpt lat="59.9846645159" lon="23.4202498428">
        <ele>10.8</ele>
        <time>2012-03-12T18:49:14Z</time>
      </trkpt>
      <trkpt lat="59.9846620013" lon="23.4202192489">
        <ele>10.6</ele>
        <time>2012-03-12T18:49:19Z</time>
      </trkpt>
      <trkpt lat="59.9846730654" lon="23.4201522775">
        <ele>10.4</ele>
        <time>2012-03-12T18:49:27Z</time>
      </trkpt>
      <trkpt lat="59.9846775078" lon="23.4201144751">
        <ele>10.4</ele>
        <time>2012-03-12T18:49:33Z</time>
      </trkpt>
      <trkpt lat="59.9846768373" lon="23.4201759983">
        <ele>10.2</ele>
        <time>2012-03-12T18:49:40Z</time>
      </trkpt>
      <trkpt lat="59.9846723949" lon="23.4202667743">
        <ele>10.2</ele>
        <time>2012-03-12T18:49:48Z</time>
      </trkpt>
      <trkpt lat="59.9846714729" lon="23.4203158922">
        <ele>10.2</ele>
        <time>2012-03-12T18:49:53Z</time>
      </trkpt>
      <trkpt lat="59.9846614146" lon="23.4203881442">
        <ele>9.6</ele>
        <time>2012-03-12T18:50:00Z</time>
      </trkpt>
      <trkpt lat="59.9846623366" lon="23.4203876413">
        <ele>9</ele>
        <time>2012-03-12T18:50:06Z</time>
      </trkpt>
      <trkpt lat="59.9846512725" lon="23.4204084284">
        <ele>8.6</ele>
        <time>2012-03-12T18:50:15Z</time>
      </trkpt>
      <trkpt lat="59.9846583971" lon="23.4203749846">
        <ele>8.4</ele>
        <time>2012-03-12T18:50:20Z</time>
      </trkpt>
      <trkpt lat="59.9846537032" lon="23.420433155">
        <ele>8.4</ele>
        <time>2012-03-12T18:50:26Z</time>
      </trkpt>
      <trkpt lat="59.9846573075" lon="23.4204343284">
        <ele>8.4</ele>
        <time>2012-03-12T18:50:27Z</time>
      </trkpt>
      <trkpt lat="59.9846633424" lon="23.420376661">
        <ele>8.2</ele>
        <time>2012-03-12T18:50:35Z</time>
      </trkpt>
      <trkpt lat="59.9846674496" lon="23.4203761581">
        <ele>8.2</ele>
        <time>2012-03-12T18:50:45Z</time>
      </trkpt>
      <trkpt lat="59.984656134" lon="23.4203956879">
        <ele>7.6</ele>
        <time>2012-03-12T18:50:55Z</time>
      </trkpt>
      <trkpt lat="59.9846671143" lon="23.4203304767">
        <ele>6.6</ele>
        <time>2012-03-12T18:51:05Z</time>
      </trkpt>
      <trkpt lat="59.984681112" lon="23.4202407904">
        <ele>6.4</ele>
        <time>2012-03-12T18:51:12Z</time>
      </trkpt>
      <trkpt lat="59.9846605764" lon="23.4201994676">
        <ele>6.2</ele>
        <time>2012-03-12T18:51:29Z</time>
      </trkpt>
      <trkpt lat="59.9846741551" lon="23.4202241104">
        <ele>6.2</ele>
        <time>2012-03-12T18:51:50Z</time>
      </trkpt>
      <trkpt lat="59.9846619175" lon="23.4203386072">
        <ele>6.2</ele>
        <time>2012-03-12T18:52:12Z</time>
      </trkpt>
      <trkpt lat="59.9846619175" lon="23.4203521858">
        <ele>6.2</ele>
        <time>2012-03-12T18:52:13Z</time>
      </trkpt>
      <trkpt lat="59.9846526136" lon="23.4204028963">
        <ele>6.2</ele>
        <time>2012-03-12T18:52:19Z</time>
      </trkpt>
      <trkpt lat="59.984649177" lon="23.4204323168">
        <ele>6.2</ele>
        <time>2012-03-12T18:52:25Z</time>
      </trkpt>
      <trkpt lat="59.9846585647" lon="23.4204352505">
        <ele>6.2</ele>
        <time>2012-03-12T18:52:39Z</time>
      </trkpt>
      <trkpt lat="59.9846490932" lon="23.4204617373">
        <ele>6.2</ele>
        <time>2012-03-12T18:52:44Z</time>
      </trkpt>
      <trkpt lat="59.9846215167" lon="23.4206168862">
        <ele>6.2</ele>
        <time>2012-03-12T18:52:47Z</time>
      </trkpt>
      <trkpt lat="59.9845561379" lon="23.420989294">
        <ele>6.2</ele>
        <time>2012-03-12T18:52:51Z</time>
      </trkpt>
      <trkpt lat="59.9844890827" lon="23.4214055392">
        <ele>6.2</ele>
        <time>2012-03-12T18:52:55Z</time>
      </trkpt>
      <trkpt lat="59.9844176689" lon="23.4218200242">
        <ele>6.2</ele>
        <time>2012-03-12T18:52:59Z</time>
      </trkpt>
      <trkpt lat="59.9843533798" lon="23.4222267139">
        <ele>6.2</ele>
        <time>2012-03-12T18:53:03Z</time>
      </trkpt>
      <trkpt lat="59.9843325926" lon="23.4223252013">
        <ele>6.4</ele>
        <time>2012-03-12T18:53:04Z</time>
      </trkpt>
      <trkpt lat="59.9842497795" lon="23.4228266903">
        <ele>7.2</ele>
        <time>2012-03-12T18:53:09Z</time>
      </trkpt>
      <trkpt lat="59.9841703191" lon="23.4232291054">
        <ele>7.6</ele>
        <time>2012-03-12T18:53:13Z</time>
      </trkpt>
      <trkpt lat="59.9840885117" lon="23.4236290058">
        <ele>8</ele>
        <time>2012-03-12T18:53:17Z</time>
      </trkpt>
      <trkpt lat="59.984068479" lon="23.4237295048">
        <ele>8.2</ele>
        <time>2012-03-12T18:53:18Z</time>
      </trkpt>
      <trkpt lat="59.984036041" lon="23.4238972266">
        <ele>8.6</ele>
        <time>2012-03-12T18:53:20Z</time>
      </trkpt>
      <trkpt lat="59.9840284973" lon="23.4240092088">
        <ele>9</ele>
        <time>2012-03-12T18:53:21Z</time>
      </trkpt>
      <trkpt lat="59.9840399805" lon="23.4239734181">
        <ele>9.6</ele>
        <time>2012-03-12T18:53:27Z</time>
      </trkpt>
      <trkpt lat="59.9840423274" lon="23.4239455902">
        <ele>10.2</ele>
        <time>2012-03-12T18:53:36Z</time>
      </trkpt>
      <trkpt lat="59.9840509608" lon="23.4239249707">
        <ele>10.4</ele>
        <time>2012-03-12T18:53:54Z</time>
      </trkpt>
      <trkpt lat="59.9840322692" lon="23.4239228752">
        <ele>10.4</ele>
        <time>2012-03-12T18:53:58Z</time>
      </trkpt>
      <trkpt lat="59.9840404834" lon="23.4238983163">
        <ele>10.4</ele>
        <time>2012-03-12T18:54:06Z</time>
      </trkpt>
      <trkpt lat="59.9840687304" lon="23.4237865017">
        <ele>10.4</ele>
        <time>2012-03-12T18:54:11Z</time>
      </trkpt>
      <trkpt lat="59.9841347798" lon="23.4234021916">
        <ele>10.4</ele>
        <time>2012-03-12T18:54:15Z</time>
      </trkpt>
      <trkpt lat="59.9841845683" lon="23.4230327174">
        <ele>10.4</ele>
        <time>2012-03-12T18:54:18Z</time>
      </trkpt>
      <trkpt lat="59.9842423196" lon="23.4226248542">
        <ele>10.4</ele>
        <time>2012-03-12T18:54:22Z</time>
      </trkpt>
      <trkpt lat="59.9843220315" lon="23.422019681">
        <ele>10.4</ele>
        <time>2012-03-12T18:54:28Z</time>
      </trkpt>
      <trkpt lat="59.9843789446" lon="23.421606621">
        <ele>10.4</ele>
        <time>2012-03-12T18:54:32Z</time>
      </trkpt>
      <trkpt lat="59.9843921041" lon="23.4214996679">
        <ele>10.4</ele>
        <time>2012-03-12T18:54:33Z</time>
      </trkpt>
      <trkpt lat="59.9844641885" lon="23.4210972529">
        <ele>10.4</ele>
        <time>2012-03-12T18:54:37Z</time>
      </trkpt>
      <trkpt lat="59.9845437327" lon="23.4206727097">
        <ele>10.4</ele>
        <time>2012-03-12T18:54:41Z</time>
      </trkpt>
      <trkpt lat="59.9845832115" lon="23.420486883">
        <ele>10.4</ele>
        <time>2012-03-12T18:54:43Z</time>
      </trkpt>
      <trkpt lat="59.9846278032" lon="23.4202948536">
        <ele>10.4</ele>
        <time>2012-03-12T18:54:47Z</time>
      </trkpt>
      <trkpt lat="59.9846353469" lon="23.4202956918">
        <ele>10.4</ele>
        <time>2012-03-12T18:54:48Z</time>
      </trkpt>
      <trkpt lat="59.9846411304" lon="23.4203729729">
        <ele>10.4</ele>
        <time>2012-03-12T18:55:01Z</time>
      </trkpt>
      <trkpt lat="59.9846356822" lon="23.4204062491">
        <ele>10.4</ele>
        <time>2012-03-12T18:55:06Z</time>
      </trkpt>
      <trkpt lat="59.984659822" lon="23.4204339932">
        <ele>10.4</ele>
        <time>2012-03-12T18:55:48Z</time>
      </trkpt>
      <trkpt lat="59.9846568884" lon="23.4204661797">
        <ele>10.4</ele>
        <time>2012-03-12T18:55:53Z</time>
      </trkpt>
      <trkpt lat="59.9846247857" lon="23.4206513358">
        <ele>10.4</ele>
        <time>2012-03-12T18:56:12Z</time>
      </trkpt>
      <trkpt lat="59.9845596583" lon="23.4209334706">
        <ele>10.4</ele>
        <time>2012-03-12T18:56:15Z</time>
      </trkpt>
      <trkpt lat="59.9844586564" lon="23.4214606921">
        <ele>10.4</ele>
        <time>2012-03-12T18:56:20Z</time>
      </trkpt>
      <trkpt lat="59.9844386237" lon="23.4215739316">
        <ele>10.4</ele>
        <time>2012-03-12T18:56:21Z</time>
      </trkpt>
      <trkpt lat="59.9843738316" lon="23.4219917693">
        <ele>10.6</ele>
        <time>2012-03-12T18:56:25Z</time>
      </trkpt>
      <trkpt lat="59.9843043456" lon="23.4224174022">
        <ele>11.2</ele>
        <time>2012-03-12T18:56:29Z</time>
      </trkpt>
      <trkpt lat="59.9842486898" lon="23.4228318871">
        <ele>11.6</ele>
        <time>2012-03-12T18:56:33Z</time>
      </trkpt>
      <trkpt lat="59.9841863285" lon="23.4232570171">
        <ele>12</ele>
        <time>2012-03-12T18:56:37Z</time>
      </trkpt>
      <trkpt lat="59.9841144118" lon="23.4236982403">
        <ele>12.2</ele>
        <time>2012-03-12T18:56:41Z</time>
      </trkpt>
      <trkpt lat="59.9840818062" lon="23.4238893476">
        <ele>12.2</ele>
        <time>2012-03-12T18:56:43Z</time>
      </trkpt>
      <trkpt lat="59.9840504579" lon="23.4240608413">
        <ele>12.2</ele>
        <time>2012-03-12T18:56:47Z</time>
      </trkpt>
      <trkpt lat="59.9840516314" lon="23.4240425688">
        <ele>12.4</ele>
        <time>2012-03-12T18:56:48Z</time>
      </trkpt>
      <trkpt lat="59.9840580854" lon="23.4239666287">
        <ele>12.4</ele>
        <time>2012-03-12T18:56:54Z</time>
      </trkpt>
      <trkpt lat="59.9840681437" lon="23.423884067">
        <ele>12.4</ele>
        <time>2012-03-12T18:57:02Z</time>
      </trkpt>
      <trkpt lat="59.9840542297" lon="23.4238704045">
        <ele>12.4</ele>
        <time>2012-03-12T18:57:18Z</time>
      </trkpt>
      <trkpt lat="59.9840590074" lon="23.4238625255">
        <ele>12.4</ele>
        <time>2012-03-12T18:57:36Z</time>
      </trkpt>
      <trkpt lat="59.9840504579" lon="23.4238526349">
        <ele>12.4</ele>
        <time>2012-03-12T18:57:45Z</time>
      </trkpt>
      <trkpt lat="59.9840455964" lon="23.4238568259">
        <ele>12.4</ele>
        <time>2012-03-12T18:57:51Z</time>
      </trkpt>
      <trkpt lat="59.9840526372" lon="23.4238343624">
        <ele>12.4</ele>
        <time>2012-03-12T18:58:09Z</time>
      </trkpt>
      <trkpt lat="59.9840999949" lon="23.4235974899">
        <ele>12.4</ele>
        <time>2012-03-12T18:58:13Z</time>
      </trkpt>
      <trkpt lat="59.9841668825" lon="23.4231827535">
        <ele>12.4</ele>
        <time>2012-03-12T18:58:17Z</time>
      </trkpt>
      <trkpt lat="59.9841769408" lon="23.423112094">
        <ele>12.4</ele>
        <time>2012-03-12T18:58:18Z</time>
      </trkpt>
      <trkpt lat="59.9842320937" lon="23.4226719605">
        <ele>12.4</ele>
        <time>2012-03-12T18:58:22Z</time>
      </trkpt>
      <trkpt lat="59.9842585805" lon="23.4224661848">
        <ele>12.4</ele>
        <time>2012-03-12T18:58:24Z</time>
      </trkpt>
      <trkpt lat="59.9843469257" lon="23.42183771">
        <ele>12.4</ele>
        <time>2012-03-12T18:58:30Z</time>
      </trkpt>
      <trkpt lat="59.9844063534" lon="23.4214147593">
        <ele>12.4</ele>
        <time>2012-03-12T18:58:34Z</time>
      </trkpt>
      <trkpt lat="59.9844570639" lon="23.4211084847">
        <ele>12.4</ele>
        <time>2012-03-12T18:58:37Z</time>
      </trkpt>
      <trkpt lat="59.9845509411" lon="23.420591992">
        <ele>12.4</ele>
        <time>2012-03-12T18:58:42Z</time>
      </trkpt>
      <trkpt lat="59.9845993885" lon="23.4203595619">
        <ele>12.4</ele>
        <time>2012-03-12T18:58:45Z</time>
      </trkpt>
      <trkpt lat="59.9846147274" lon="23.4202923391">
        <ele>12.4</ele>
        <time>2012-03-12T18:58:48Z</time>
      </trkpt>
      <trkpt lat="59.9846187507" lon="23.4202972844">
        <ele>12.4</ele>
        <time>2012-03-12T18:58:49Z</time>
      </trkpt>
      <trkpt lat="59.9846041662" lon="23.4203975319">
        <ele>12.4</ele>
        <time>2012-03-12T18:59:06Z</time>
      </trkpt>
      <trkpt lat="59.9846110394" lon="23.420431311">
        <ele>13</ele>
        <time>2012-03-12T18:59:12Z</time>
      </trkpt>
      <trkpt lat="59.9846259591" lon="23.4204002979">
        <ele>13.6</ele>
        <time>2012-03-12T18:59:17Z</time>
      </trkpt>
      <trkpt lat="59.9846257915" lon="23.4204464822">
        <ele>14.2</ele>
        <time>2012-03-12T18:59:23Z</time>
      </trkpt>
      <trkpt lat="59.9846308206" lon="23.4204096018">
        <ele>14.2</ele>
        <time>2012-03-12T18:59:29Z</time>
      </trkpt>
      <trkpt lat="59.9846454052" lon="23.4204150501">
        <ele>14.4</ele>
        <time>2012-03-12T18:59:37Z</time>
      </trkpt>
      <trkpt lat="59.9846457404" lon="23.4204402796">
        <ele>14.4</ele>
        <time>2012-03-12T18:59:46Z</time>
      </trkpt>
      <trkpt lat="59.9846499314" lon="23.4203874736">
        <ele>14.6</ele>
        <time>2012-03-12T19:00:00Z</time>
      </trkpt>
      <trkpt lat="59.984656134" lon="23.4203893176">
        <ele>14.6</ele>
        <time>2012-03-12T19:00:05Z</time>
      </trkpt>
      <trkpt lat="59.984636688" lon="23.4205360847">
        <ele>14.6</ele>
        <time>2012-03-12T19:00:11Z</time>
      </trkpt>
      <trkpt lat="59.984560748" lon="23.4209187185">
        <ele>14.6</ele>
        <time>2012-03-12T19:00:15Z</time>
      </trkpt>
      <trkpt lat="59.9845417211" lon="23.4210125957">
        <ele>14.6</ele>
        <time>2012-03-12T19:00:16Z</time>
      </trkpt>
      <trkpt lat="59.9845232809" lon="23.4210865241">
        <ele>14.6</ele>
        <time>2012-03-12T19:00:17Z</time>
      </trkpt>
      <trkpt lat="59.9844529567" lon="23.4215329441">
        <ele>14.6</ele>
        <time>2012-03-12T19:00:21Z</time>
      </trkpt>
      <trkpt lat="59.9844348518" lon="23.4216307609">
        <ele>14.6</ele>
        <time>2012-03-12T19:00:22Z</time>
      </trkpt>
      <trkpt lat="59.9843726581" lon="23.4220368639">
        <ele>14.6</ele>
        <time>2012-03-12T19:00:26Z</time>
      </trkpt>
      <trkpt lat="59.9843449979" lon="23.4222646001">
        <ele>14.6</ele>
        <time>2012-03-12T19:00:28Z</time>
      </trkpt>
      <trkpt lat="59.9842688064" lon="23.4227688552">
        <ele>14.6</ele>
        <time>2012-03-12T19:00:33Z</time>
      </trkpt>
      <trkpt lat="59.9841932855" lon="23.4231734496">
        <ele>14.6</ele>
        <time>2012-03-12T19:00:37Z</time>
      </trkpt>
      <trkpt lat="59.9841203629" lon="23.4235815643">
        <ele>14.6</ele>
        <time>2012-03-12T19:00:41Z</time>
      </trkpt>
      <trkpt lat="59.9840531401" lon="23.4239154992">
        <ele>14.6</ele>
        <time>2012-03-12T19:00:45Z</time>
      </trkpt>
      <trkpt lat="59.9840464346" lon="23.4239569896">
        <ele>14.6</ele>
        <time>2012-03-12T19:00:46Z</time>
      </trkpt>
      <trkpt lat="59.9840344485" lon="23.4239546426">
        <ele>14.6</ele>
        <time>2012-03-12T19:00:49Z</time>
      </trkpt>
      <trkpt lat="59.9840458478" lon="23.4239222047">
        <ele>14.6</ele>
        <time>2012-03-12T19:00:58Z</time>
      </trkpt>
      <trkpt lat="59.9840590912" lon="23.4239289102">
        <ele>14.6</ele>
        <time>2012-03-12T19:01:09Z</time>
      </trkpt>
      <trkpt lat="59.9840570796" lon="23.4239478533">
        <ele>14.6</ele>
        <time>2012-03-12T19:01:15Z</time>
      </trkpt>
      <trkpt lat="59.9840574987" lon="23.4239658744">
        <ele>14.6</ele>
        <time>2012-03-12T19:01:22Z</time>
      </trkpt>
      <trkpt lat="59.9840475242" lon="23.4240147409">
        <ele>14.4</ele>
        <time>2012-03-12T19:01:31Z</time>
      </trkpt>
      <trkpt lat="59.9840228814" lon="23.4239802912">
        <ele>11.8</ele>
        <time>2012-03-12T19:01:55Z</time>
      </trkpt>
      <trkpt lat="59.9840086322" lon="23.4240506154">
        <ele>10.8</ele>
        <time>2012-03-12T19:02:02Z</time>
      </trkpt>
      <trkpt lat="59.9840217918" lon="23.4240589973">
        <ele>9.4</ele>
        <time>2012-03-12T19:02:10Z</time>
      </trkpt>
      <trkpt lat="59.9840301737" lon="23.4240065266">
        <ele>8.8</ele>
        <time>2012-03-12T19:02:16Z</time>
      </trkpt>
      <trkpt lat="59.9840322692" lon="23.4239663773">
        <ele>7.8</ele>
        <time>2012-03-12T19:02:22Z</time>
      </trkpt>
      <trkpt lat="59.9840450097" lon="23.4239327659">
        <ele>7.2</ele>
        <time>2012-03-12T19:02:27Z</time>
      </trkpt>
      <trkpt lat="59.9840486139" lon="23.423863699">
        <ele>6.6</ele>
        <time>2012-03-12T19:02:36Z</time>
      </trkpt>
      <trkpt lat="59.9840580016" lon="23.4238264834">
        <ele>6.4</ele>
        <time>2012-03-12T19:02:42Z</time>
      </trkpt>
      <trkpt lat="59.9840747654" lon="23.4236814765">
        <ele>6.4</ele>
        <time>2012-03-12T19:02:46Z</time>
      </trkpt>
      <trkpt lat="59.9841364562" lon="23.4232787262">
        <ele>6.2</ele>
        <time>2012-03-12T19:02:50Z</time>
      </trkpt>
      <trkpt lat="59.9841553155" lon="23.4231745392">
        <ele>6.2</ele>
        <time>2012-03-12T19:02:51Z</time>
      </trkpt>
      <trkpt lat="59.9842345244" lon="23.4226536041">
        <ele>6.2</ele>
        <time>2012-03-12T19:02:56Z</time>
      </trkpt>
      <trkpt lat="59.9842490251" lon="23.4225492495">
        <ele>6.2</ele>
        <time>2012-03-12T19:02:57Z</time>
      </trkpt>
      <trkpt lat="59.9842949579" lon="23.4221179169">
        <ele>6.2</ele>
        <time>2012-03-12T19:03:01Z</time>
      </trkpt>
      <trkpt lat="59.9843090395" lon="23.4220234529">
        <ele>6.2</ele>
        <time>2012-03-12T19:03:02Z</time>
      </trkpt>
      <trkpt lat="59.9843675452" lon="23.4216108958">
        <ele>6.2</ele>
        <time>2012-03-12T19:03:06Z</time>
      </trkpt>
      <trkpt lat="59.9843788607" lon="23.4215031045">
        <ele>6.2</ele>
        <time>2012-03-12T19:03:07Z</time>
      </trkpt>
      <trkpt lat="59.984443569" lon="23.4211006057">
        <ele>6.2</ele>
        <time>2012-03-12T19:03:11Z</time>
      </trkpt>
      <trkpt lat="59.9845219398" lon="23.4207202351">
        <ele>6.2</ele>
        <time>2012-03-12T19:03:15Z</time>
      </trkpt>
      <trkpt lat="59.9846091953" lon="23.4203734759">
        <ele>6.2</ele>
        <time>2012-03-12T19:03:19Z</time>
      </trkpt>
      <trkpt lat="59.9846144759" lon="23.4203269563">
        <ele>6.2</ele>
        <time>2012-03-12T19:03:20Z</time>
      </trkpt>
      <trkpt lat="59.9846435611" lon="23.4203412055">
        <ele>6.2</ele>
        <time>2012-03-12T19:03:34Z</time>
      </trkpt>
      <trkpt lat="59.9846532841" lon="23.4203466538">
        <ele>6.2</ele>
        <time>2012-03-12T19:03:40Z</time>
      </trkpt>
      <trkpt lat="59.9846453213" lon="23.4203999627">
        <ele>6.2</ele>
        <time>2012-03-12T19:03:45Z</time>
      </trkpt>
      <trkpt lat="59.9846521945" lon="23.4203993759">
        <ele>6.2</ele>
        <time>2012-03-12T19:03:50Z</time>
      </trkpt>
      <trkpt lat="59.984657056" lon="23.420376661">
        <ele>6.2</ele>
        <time>2012-03-12T19:03:54Z</time>
      </trkpt>
      <trkpt lat="59.9846521945" lon="23.4204283773">
        <ele>6.2</ele>
        <time>2012-03-12T19:04:01Z</time>
      </trkpt>
      <trkpt lat="59.9846418009" lon="23.4205659243">
        <ele>6.2</ele>
        <time>2012-03-12T19:04:11Z</time>
      </trkpt>
      <trkpt lat="59.9845675373" lon="23.4209233285">
        <ele>6.2</ele>
        <time>2012-03-12T19:04:15Z</time>
      </trkpt>
      <trkpt lat="59.9845104566" lon="23.4212168626">
        <ele>6.2</ele>
        <time>2012-03-12T19:04:18Z</time>
      </trkpt>
      <trkpt lat="59.984415322" lon="23.4218023383">
        <ele>6.2</ele>
        <time>2012-03-12T19:04:24Z</time>
      </trkpt>
      <trkpt lat="59.9843723229" lon="23.4221085292">
        <ele>6.2</ele>
        <time>2012-03-12T19:04:27Z</time>
      </trkpt>
      <trkpt lat="59.984281966" lon="23.4226343257">
        <ele>6.4</ele>
        <time>2012-03-12T19:04:32Z</time>
      </trkpt>
      <trkpt lat="59.9842208619" lon="23.4230344776">
        <ele>7</ele>
        <time>2012-03-12T19:04:36Z</time>
      </trkpt>
      <trkpt lat="59.9841460954" lon="23.4234249904">
        <ele>7.4</ele>
        <time>2012-03-12T19:04:40Z</time>
      </trkpt>
      <trkpt lat="59.984124051" lon="23.4235289259">
        <ele>7.6</ele>
        <time>2012-03-12T19:04:41Z</time>
      </trkpt>
      <trkpt lat="59.9840907748" lon="23.4237153394">
        <ele>7.6</ele>
        <time>2012-03-12T19:04:43Z</time>
      </trkpt>
      <trkpt lat="59.9840566605" lon="23.4238863301">
        <ele>8.2</ele>
        <time>2012-03-12T19:04:45Z</time>
      </trkpt>
      <trkpt lat="59.9840397291" lon="23.4239829735">
        <ele>8.8</ele>
        <time>2012-03-12T19:04:49Z</time>
      </trkpt>
      <trkpt lat="59.9840533916" lon="23.4238972266">
        <ele>10</ele>
        <time>2012-03-12T19:05:06Z</time>
      </trkpt>
      <trkpt lat="59.9840782858" lon="23.4238797084">
        <ele>10.2</ele>
        <time>2012-03-12T19:05:35Z</time>
      </trkpt>
      <trkpt lat="59.9840425789" lon="23.4238563229">
        <ele>10.2</ele>
        <time>2012-03-12T19:05:46Z</time>
      </trkpt>
      <trkpt lat="59.9840498712" lon="23.4238148325">
        <ele>8.8</ele>
        <time>2012-03-12T19:05:57Z</time>
      </trkpt>
      <trkpt lat="59.9840576663" lon="23.4238019244">
        <ele>8.4</ele>
        <time>2012-03-12T19:06:09Z</time>
      </trkpt>
      <trkpt lat="59.9841188542" lon="23.4233981683">
        <ele>8.2</ele>
        <time>2012-03-12T19:06:14Z</time>
      </trkpt>
      <trkpt lat="59.9841797068" lon="23.4229725354">
        <ele>8.2</ele>
        <time>2012-03-12T19:06:18Z</time>
      </trkpt>
      <trkpt lat="59.9842154975" lon="23.4227743873">
        <ele>8.2</ele>
        <time>2012-03-12T19:06:20Z</time>
      </trkpt>
      <trkpt lat="59.9842736679" lon="23.4222358502">
        <ele>7.8</ele>
        <time>2012-03-12T19:06:25Z</time>
      </trkpt>
      <trkpt lat="59.9843144039" lon="23.4219241274">
        <ele>7.4</ele>
        <time>2012-03-12T19:06:28Z</time>
      </trkpt>
      <trkpt lat="59.9843372865" lon="23.42174509">
        <ele>7.2</ele>
        <time>2012-03-12T19:06:30Z</time>
      </trkpt>
      <trkpt lat="59.9843746698" lon="23.4215202874">
        <ele>7</ele>
        <time>2012-03-12T19:06:32Z</time>
      </trkpt>
      <trkpt lat="59.9844501907" lon="23.4210248333">
        <ele>6.2</ele>
        <time>2012-03-12T19:06:37Z</time>
      </trkpt>
      <trkpt lat="59.9845184194" lon="23.420617473">
        <ele>5.4</ele>
        <time>2012-03-12T19:06:41Z</time>
      </trkpt>
      <trkpt lat="59.9845835467" lon="23.4202959433">
        <ele>5</ele>
        <time>2012-03-12T19:06:45Z</time>
      </trkpt>
      <trkpt lat="59.9845885759" lon="23.4202716358">
        <ele>4.8</ele>
        <time>2012-03-12T19:06:46Z</time>
      </trkpt>
      <trkpt lat="59.9846127996" lon="23.4202703785">
        <ele>4.4</ele>
        <time>2012-03-12T19:06:53Z</time>
      </trkpt>
      <trkpt lat="59.9846477521" lon="23.420268283">
        <ele>4</ele>
        <time>2012-03-12T19:07:10Z</time>
      </trkpt>
      <trkpt lat="59.9846545414" lon="23.4203085161">
        <ele>4.8</ele>
        <time>2012-03-12T19:07:16Z</time>
      </trkpt>
      <trkpt lat="59.9846735683" lon="23.420363669">
        <ele>7.8</ele>
        <time>2012-03-12T19:07:49Z</time>
      </trkpt>
      <trkpt lat="59.9846745742" lon="23.4203677762">
        <ele>8.2</ele>
        <time>2012-03-12T19:08:00Z</time>
      </trkpt>
      <trkpt lat="59.9846620851" lon="23.4204267847">
        <ele>9.4</ele>
        <time>2012-03-12T19:08:09Z</time>
      </trkpt>
      <trkpt lat="59.9846326647" lon="23.4205736356">
        <ele>9.6</ele>
        <time>2012-03-12T19:08:12Z</time>
      </trkpt>
      <trkpt lat="59.9845572276" lon="23.4209623043">
        <ele>9.8</ele>
        <time>2012-03-12T19:08:16Z</time>
      </trkpt>
      <trkpt lat="59.9844926869" lon="23.4213262464">
        <ele>10</ele>
        <time>2012-03-12T19:08:20Z</time>
      </trkpt>
      <trkpt lat="59.9844615901" lon="23.4215414098">
        <ele>10</ele>
        <time>2012-03-12T19:08:22Z</time>
      </trkpt>
      <trkpt lat="59.9843971333" lon="23.4219443277">
        <ele>10</ele>
        <time>2012-03-12T19:08:26Z</time>
      </trkpt>
      <trkpt lat="59.9843279826" lon="23.4224504269">
        <ele>10.2</ele>
        <time>2012-03-12T19:08:31Z</time>
      </trkpt>
      <trkpt lat="59.984311135" lon="23.4225488304">
        <ele>10.2</ele>
        <time>2012-03-12T19:08:32Z</time>
      </trkpt>
      <trkpt lat="59.9842414814" lon="23.4229562745">
        <ele>10.8</ele>
        <time>2012-03-12T19:08:36Z</time>
      </trkpt>
      <trkpt lat="59.9842226221" lon="23.4230573602">
        <ele>11</ele>
        <time>2012-03-12T19:08:37Z</time>
      </trkpt>
      <trkpt lat="59.984144419" lon="23.4234614516">
        <ele>11.4</ele>
        <time>2012-03-12T19:08:41Z</time>
      </trkpt>
      <trkpt lat="59.9840740949" lon="23.4238430795">
        <ele>11.8</ele>
        <time>2012-03-12T19:08:45Z</time>
      </trkpt>
      <trkpt lat="59.9840647071" lon="23.4239002441">
        <ele>11.8</ele>
        <time>2012-03-12T19:08:46Z</time>
      </trkpt>
      <trkpt lat="59.9840611029" lon="23.4239284073">
        <ele>12</ele>
        <time>2012-03-12T19:08:50Z</time>
      </trkpt>
      <trkpt lat="59.9840416569" lon="23.4239692271">
        <ele>12.2</ele>
        <time>2012-03-12T19:09:49Z</time>
      </trkpt>
      <trkpt lat="59.9840451773" lon="23.4238984839">
        <ele>12.2</ele>
        <time>2012-03-12T19:10:07Z</time>
      </trkpt>
      <trkpt lat="59.984102258" lon="23.4236741843">
        <ele>12.2</ele>
        <time>2012-03-12T19:10:13Z</time>
      </trkpt>
      <trkpt lat="59.9841714925" lon="23.4232605375">
        <ele>12.2</ele>
        <time>2012-03-12T19:10:17Z</time>
      </trkpt>
      <trkpt lat="59.9842204428" lon="23.422894919">
        <ele>12.2</ele>
        <time>2012-03-12T19:10:20Z</time>
      </trkpt>
      <trkpt lat="59.9842366199" lon="23.4227814281">
        <ele>12.2</ele>
        <time>2012-03-12T19:10:21Z</time>
      </trkpt>
      <trkpt lat="59.9842755119" lon="23.4225722159">
        <ele>12.2</ele>
        <time>2012-03-12T19:10:23Z</time>
      </trkpt>
      <trkpt lat="59.984324546" lon="23.4222603254">
        <ele>12.2</ele>
        <time>2012-03-12T19:10:26Z</time>
      </trkpt>
      <trkpt lat="59.9843890028" lon="23.4216841536">
        <ele>12.2</ele>
        <time>2012-03-12T19:10:31Z</time>
      </trkpt>
      <trkpt lat="59.9844027491" lon="23.4215756918">
        <ele>12.2</ele>
        <time>2012-03-12T19:10:32Z</time>
      </trkpt>
      <trkpt lat="59.9844691338" lon="23.4211502265">
        <ele>12.2</ele>
        <time>2012-03-12T19:10:36Z</time>
      </trkpt>
      <trkpt lat="59.9845418049" lon="23.4207426147">
        <ele>12.2</ele>
        <time>2012-03-12T19:10:40Z</time>
      </trkpt>
      <trkpt lat="59.9846047529" lon="23.4204675208">
        <ele>12.2</ele>
        <time>2012-03-12T19:10:43Z</time>
      </trkpt>
      <trkpt lat="59.9846350116" lon="23.4203049957">
        <ele>12.2</ele>
        <time>2012-03-12T19:10:47Z</time>
      </trkpt>
      <trkpt lat="59.9846407951" lon="23.4203049119">
        <ele>12.2</ele>
        <time>2012-03-12T19:10:48Z</time>
      </trkpt>
      <trkpt lat="59.9846848839" lon="23.4202859688">
        <ele>12.2</ele>
        <time>2012-03-12T19:11:14Z</time>
      </trkpt>
      <trkpt lat="59.984684381" lon="23.4203136291">
        <ele>12.2</ele>
        <time>2012-03-12T19:11:18Z</time>
      </trkpt>
      <trkpt lat="59.9846879014" lon="23.4203843723">
        <ele>12.2</ele>
        <time>2012-03-12T19:11:24Z</time>
      </trkpt>
      <trkpt lat="59.9846845486" lon="23.4204180676">
        <ele>12.2</ele>
        <time>2012-03-12T19:11:34Z</time>
      </trkpt>
      <trkpt lat="59.9846785975" lon="23.420457211">
        <ele>12.2</ele>
        <time>2012-03-12T19:11:39Z</time>
      </trkpt>
      <trkpt lat="59.9846855545" lon="23.420428964">
        <ele>12.2</ele>
        <time>2012-03-12T19:11:45Z</time>
      </trkpt>
      <trkpt lat="59.9846730654" lon="23.4204992044">
        <ele>12.2</ele>
        <time>2012-03-12T19:11:48Z</time>
      </trkpt>
      <trkpt lat="59.9846432259" lon="23.4206655013">
        <ele>12.2</ele>
        <time>2012-03-12T19:11:55Z</time>
      </trkpt>
      <trkpt lat="59.9846045853" lon="23.4208461312">
        <ele>12.2</ele>
        <time>2012-03-12T19:11:59Z</time>
      </trkpt>
      <trkpt lat="59.984552869" lon="23.4211215604">
        <ele>12.2</ele>
        <time>2012-03-12T19:12:04Z</time>
      </trkpt>
      <trkpt lat="59.9845020747" lon="23.4214526455">
        <ele>12.2</ele>
        <time>2012-03-12T19:12:10Z</time>
      </trkpt>
      <trkpt lat="59.9844455807" lon="23.4217943755">
        <ele>12.2</ele>
        <time>2012-03-12T19:12:16Z</time>
      </trkpt>
      <trkpt lat="59.9843842252" lon="23.4221825413">
        <ele>12.2</ele>
        <time>2012-03-12T19:12:23Z</time>
      </trkpt>
      <trkpt lat="59.9843264739" lon="23.4224823619">
        <ele>12.2</ele>
        <time>2012-03-12T19:12:29Z</time>
      </trkpt>
      <trkpt lat="59.9842641963" lon="23.4227600542">
        <ele>12.2</ele>
        <time>2012-03-12T19:12:34Z</time>
      </trkpt>
      <trkpt lat="59.9842058583" lon="23.4230684243">
        <ele>13</ele>
        <time>2012-03-12T19:12:40Z</time>
      </trkpt>
      <trkpt lat="59.9841590035" lon="23.4233697536">
        <ele>13.6</ele>
        <time>2012-03-12T19:12:46Z</time>
      </trkpt>
      <trkpt lat="59.9841003302" lon="23.4237198656">
        <ele>14.2</ele>
        <time>2012-03-12T19:12:53Z</time>
      </trkpt>
      <trkpt lat="59.9840505417" lon="23.4240610928">
        <ele>15.2</ele>
        <time>2012-03-12T19:13:00Z</time>
      </trkpt>
      <trkpt lat="59.9840253122" lon="23.424323111">
        <ele>15.8</ele>
        <time>2012-03-12T19:13:06Z</time>
      </trkpt>
      <trkpt lat="59.9840203669" lon="23.4246521843">
        <ele>16</ele>
        <time>2012-03-12T19:13:12Z</time>
      </trkpt>
      <trkpt lat="59.9840065367" lon="23.4249007077">
        <ele>16.2</ele>
        <time>2012-03-12T19:13:17Z</time>
      </trkpt>
      <trkpt lat="59.9840239711" lon="23.4250229158">
        <ele>16.2</ele>
        <time>2012-03-12T19:13:21Z</time>
      </trkpt>
      <trkpt lat="59.9840104762" lon="23.4252747081">
        <ele>16.2</ele>
        <time>2012-03-12T19:13:26Z</time>
      </trkpt>
      <trkpt lat="59.984036041" lon="23.4253104988">
        <ele>16.2</ele>
        <time>2012-03-12T19:13:27Z</time>
      </trkpt>
      <trkpt lat="59.9841703191" lon="23.4253743689">
        <ele>16.2</ele>
        <time>2012-03-12T19:13:32Z</time>
      </trkpt>
      <trkpt lat="59.9841964706" lon="23.425370597">
        <ele>16.4</ele>
        <time>2012-03-12T19:13:33Z</time>
      </trkpt>
      <trkpt lat="59.9842202752" lon="23.4253549228">
        <ele>16.4</ele>
        <time>2012-03-12T19:13:34Z</time>
      </trkpt>
      <trkpt lat="59.9843219476" lon="23.4251877878">
        <ele>16.4</ele>
        <time>2012-03-12T19:13:39Z</time>
      </trkpt>
      <trkpt lat="59.9844610034" lon="23.4251516618">
        <ele>16.4</ele>
        <time>2012-03-12T19:13:44Z</time>
      </trkpt>
      <trkpt lat="59.9845615862" lon="23.4250809185">
        <ele>16.4</ele>
        <time>2012-03-12T19:13:48Z</time>
      </trkpt>
      <trkpt lat="59.9847383604" lon="23.4250345666">
        <ele>16.4</ele>
        <time>2012-03-12T19:13:54Z</time>
      </trkpt>
      <trkpt lat="59.9848475766" lon="23.4250494864">
        <ele>16.4</ele>
        <time>2012-03-12T19:13:58Z</time>
      </trkpt>
      <trkpt lat="59.9849917453" lon="23.4250608858">
        <ele>16.4</ele>
        <time>2012-03-12T19:14:03Z</time>
      </trkpt>
      <trkpt lat="59.9851358301" lon="23.4250490673">
        <ele>16.4</ele>
        <time>2012-03-12T19:14:08Z</time>
      </trkpt>
      <trkpt lat="59.9852934098" lon="23.4250217423">
        <ele>16.4</ele>
        <time>2012-03-12T19:14:14Z</time>
      </trkpt>
      <trkpt lat="59.985655005" lon="23.4250209879">
        <ele>16.4</ele>
        <time>2012-03-12T19:14:27Z</time>
      </trkpt>
      <trkpt lat="59.9858223916" lon="23.4250159588">
        <ele>16.4</ele>
        <time>2012-03-12T19:14:33Z</time>
      </trkpt>
      <trkpt lat="59.9859598547" lon="23.4250012905">
        <ele>16.4</ele>
        <time>2012-03-12T19:14:38Z</time>
      </trkpt>
      <trkpt lat="59.9860960606" lon="23.4250004523">
        <ele>16.4</ele>
        <time>2012-03-12T19:14:43Z</time>
      </trkpt>
      <trkpt lat="59.9862582504" lon="23.4249747199">
        <ele>16.4</ele>
        <time>2012-03-12T19:14:49Z</time>
      </trkpt>
      <trkpt lat="59.9864460049" lon="23.4249772344">
        <ele>16.4</ele>
        <time>2012-03-12T19:14:56Z</time>
      </trkpt>
      <trkpt lat="59.9866098711" lon="23.4250069064">
        <ele>16.4</ele>
        <time>2012-03-12T19:15:02Z</time>
      </trkpt>
      <trkpt lat="59.9867466637" lon="23.4250490673">
        <ele>16.4</ele>
        <time>2012-03-12T19:15:07Z</time>
      </trkpt>
      <trkpt lat="59.9868785948" lon="23.4251124345">
        <ele>16.4</ele>
        <time>2012-03-12T19:15:12Z</time>
      </trkpt>
      <trkpt lat="59.9870221767" lon="23.4251815852">
        <ele>16.4</ele>
        <time>2012-03-12T19:15:17Z</time>
      </trkpt>
      <trkpt lat="59.9872103504" lon="23.4252781446">
        <ele>16.4</ele>
        <time>2012-03-12T19:15:24Z</time>
      </trkpt>
      <trkpt lat="59.9873432035" lon="23.4253484688">
        <ele>16.4</ele>
        <time>2012-03-12T19:15:29Z</time>
      </trkpt>
      <trkpt lat="59.9875261804" lon="23.425405801">
        <ele>16.4</ele>
        <time>2012-03-12T19:15:36Z</time>
      </trkpt>
      <trkpt lat="59.9876778089" lon="23.4254513147">
        <ele>16.4</ele>
        <time>2012-03-12T19:15:42Z</time>
      </trkpt>
      <trkpt lat="59.987800017" lon="23.4254740296">
        <ele>16.4</ele>
        <time>2012-03-12T19:15:47Z</time>
      </trkpt>
      <trkpt lat="59.9879608657" lon="23.4255119158">
        <ele>16.4</ele>
        <time>2012-03-12T19:15:53Z</time>
      </trkpt>
      <trkpt lat="59.9881201218" lon="23.4255394923">
        <ele>16.4</ele>
        <time>2012-03-12T19:15:59Z</time>
      </trkpt>
      <trkpt lat="59.98829413" lon="23.4255928012">
        <ele>16.4</ele>
        <time>2012-03-12T19:16:06Z</time>
      </trkpt>
      <trkpt lat="59.9883870853" lon="23.4255937232">
        <ele>16.4</ele>
        <time>2012-03-12T19:16:10Z</time>
      </trkpt>
      <trkpt lat="59.9885165019" lon="23.4256207129">
        <ele>16.8</ele>
        <time>2012-03-12T19:16:15Z</time>
      </trkpt>
      <trkpt lat="59.988663688" lon="23.4256536538">
        <ele>17.6</ele>
        <time>2012-03-12T19:16:21Z</time>
      </trkpt>
      <trkpt lat="59.9888494309" lon="23.4256795538">
        <ele>18</ele>
        <time>2012-03-12T19:16:28Z</time>
      </trkpt>
      <trkpt lat="59.9890139676" lon="23.4256938869">
        <ele>18.2</ele>
        <time>2012-03-12T19:16:34Z</time>
      </trkpt>
      <trkpt lat="59.9892176478" lon="23.4257243132">
        <ele>18.2</ele>
        <time>2012-03-12T19:16:41Z</time>
      </trkpt>
      <trkpt lat="59.9893556977" lon="23.4257395682">
        <ele>18.4</ele>
        <time>2012-03-12T19:16:46Z</time>
      </trkpt>
      <trkpt lat="59.9895126068" lon="23.425742921">
        <ele>18.4</ele>
        <time>2012-03-12T19:16:52Z</time>
      </trkpt>
      <trkpt lat="59.9896745452" lon="23.4257746046">
        <ele>18.4</ele>
        <time>2012-03-12T19:16:58Z</time>
      </trkpt>
      <trkpt lat="59.9898074821" lon="23.4257917875">
        <ele>18.4</ele>
        <time>2012-03-12T19:17:03Z</time>
      </trkpt>
      <trkpt lat="59.9899625472" lon="23.4257988283">
        <ele>18.4</ele>
        <time>2012-03-12T19:17:09Z</time>
      </trkpt>
      <trkpt lat="59.9901309396" lon="23.4258047794">
        <ele>18.4</ele>
        <time>2012-03-12T19:17:15Z</time>
      </trkpt>
      <trkpt lat="59.9902496273" lon="23.4258229681">
        <ele>18.4</ele>
        <time>2012-03-12T19:17:20Z</time>
      </trkpt>
      <trkpt lat="59.9903754396" lon="23.4258119879">
        <ele>18.6</ele>
        <time>2012-03-12T19:17:25Z</time>
      </trkpt>
      <trkpt lat="59.9905071193" lon="23.4258173523">
        <ele>19.2</ele>
        <time>2012-03-12T19:17:30Z</time>
      </trkpt>
      <trkpt lat="59.9906234601" lon="23.4258560766">
        <ele>19.8</ele>
        <time>2012-03-12T19:17:35Z</time>
      </trkpt>
      <trkpt lat="59.9907399685" lon="23.425874433">
        <ele>20</ele>
        <time>2012-03-12T19:17:40Z</time>
      </trkpt>
      <trkpt lat="59.9908572312" lon="23.4258978185">
        <ele>20.2</ele>
        <time>2012-03-12T19:17:45Z</time>
      </trkpt>
      <trkpt lat="59.9909980472" lon="23.4259141632">
        <ele>20.2</ele>
        <time>2012-03-12T19:17:51Z</time>
      </trkpt>
      <trkpt lat="59.9911317385" lon="23.4259516303">
        <ele>20.2</ele>
        <time>2012-03-12T19:17:56Z</time>
      </trkpt>
      <trkpt lat="59.9912646754" lon="23.4260167577">
        <ele>20.4</ele>
        <time>2012-03-12T19:18:01Z</time>
      </trkpt>
      <trkpt lat="59.991284792" lon="23.426041149">
        <ele>20.4</ele>
        <time>2012-03-12T19:18:02Z</time>
      </trkpt>
      <trkpt lat="59.9913458122" lon="23.4263194281">
        <ele>20.4</ele>
        <time>2012-03-12T19:18:08Z</time>
      </trkpt>
      <trkpt lat="59.991456118" lon="23.4264275546">
        <ele>20.4</ele>
        <time>2012-03-12T19:18:13Z</time>
      </trkpt>
      <trkpt lat="59.9915707824" lon="23.4266106153">
        <ele>20.4</ele>
        <time>2012-03-12T19:18:18Z</time>
      </trkpt>
      <trkpt lat="59.9916950021" lon="23.4268213362">
        <ele>20.4</ele>
        <time>2012-03-12T19:18:24Z</time>
      </trkpt>
      <trkpt lat="59.9917899691" lon="23.4269933328">
        <ele>20.4</ele>
        <time>2012-03-12T19:18:29Z</time>
      </trkpt>
      <trkpt lat="59.9918224908" lon="23.4270564485">
        <ele>20.4</ele>
        <time>2012-03-12T19:18:31Z</time>
      </trkpt>
      <trkpt lat="59.9918276038" lon="23.4272696841">
        <ele>20.4</ele>
        <time>2012-03-12T19:18:36Z</time>
      </trkpt>
      <trkpt lat="59.9917859458" lon="23.4274509008">
        <ele>20.4</ele>
        <time>2012-03-12T19:18:40Z</time>
      </trkpt>
      <trkpt lat="59.991721908" lon="23.4277248213">
        <ele>20.4</ele>
        <time>2012-03-12T19:18:46Z</time>
      </trkpt>
      <trkpt lat="59.9916740474" lon="23.4280243065">
        <ele>20.4</ele>
        <time>2012-03-12T19:18:52Z</time>
      </trkpt>
      <trkpt lat="59.9916077466" lon="23.4283413938">
        <ele>20.4</ele>
        <time>2012-03-12T19:18:58Z</time>
      </trkpt>
      <trkpt lat="59.9915452176" lon="23.4285983829">
        <ele>20.4</ele>
        <time>2012-03-12T19:19:03Z</time>
      </trkpt>
      <trkpt lat="59.9914734685" lon="23.4288672742">
        <ele>20.4</ele>
        <time>2012-03-12T19:19:08Z</time>
      </trkpt>
      <trkpt lat="59.9914396895" lon="23.42915821">
        <ele>19.8</ele>
        <time>2012-03-12T19:19:13Z</time>
      </trkpt>
      <trkpt lat="59.9915014641" lon="23.4293349004">
        <ele>19.2</ele>
        <time>2012-03-12T19:19:17Z</time>
      </trkpt>
      <trkpt lat="59.9915872947" lon="23.4295267621">
        <ele>18.8</ele>
        <time>2012-03-12T19:19:22Z</time>
      </trkpt>
      <trkpt lat="59.9917018753" lon="23.4297603657">
        <ele>18.6</ele>
        <time>2012-03-12T19:19:28Z</time>
      </trkpt>
      <trkpt lat="59.9917359896" lon="23.4298327015">
        <ele>18.6</ele>
        <time>2012-03-12T19:19:30Z</time>
      </trkpt>
      <trkpt lat="59.9918013685" lon="23.4297786382">
        <ele>18.4</ele>
        <time>2012-03-12T19:19:34Z</time>
      </trkpt>
      <trkpt lat="59.9918089122" lon="23.4295960804">
        <ele>18.4</ele>
        <time>2012-03-12T19:19:38Z</time>
      </trkpt>
      <trkpt lat="59.9917984348" lon="23.4293597108">
        <ele>18.4</ele>
        <time>2012-03-12T19:19:43Z</time>
      </trkpt>
      <trkpt lat="59.9918093313" lon="23.4291686035">
        <ele>18.4</ele>
        <time>2012-03-12T19:19:48Z</time>
      </trkpt>
      <trkpt lat="59.9918164559" lon="23.4289348323">
        <ele>18.2</ele>
        <time>2012-03-12T19:19:53Z</time>
      </trkpt>
      <trkpt lat="59.9918531686" lon="23.4287081858">
        <ele>18.2</ele>
        <time>2012-03-12T19:19:58Z</time>
      </trkpt>
      <trkpt lat="59.9918674178" lon="23.4286774242">
        <ele>18.2</ele>
        <time>2012-03-12T19:19:59Z</time>
      </trkpt>
      <trkpt lat="59.99195811" lon="23.4286490095">
        <ele>18.2</ele>
        <time>2012-03-12T19:20:03Z</time>
      </trkpt>
      <trkpt lat="59.992106302" lon="23.4286248697">
        <ele>18.4</ele>
        <time>2012-03-12T19:20:09Z</time>
      </trkpt>
      <trkpt lat="59.9922548293" lon="23.4285595747">
        <ele>19.4</ele>
        <time>2012-03-12T19:20:15Z</time>
      </trkpt>
      <trkpt lat="59.9923301825" lon="23.42841725">
        <ele>19.8</ele>
        <time>2012-03-12T19:20:20Z</time>
      </trkpt>
      <trkpt lat="59.9923639616" lon="23.4281437486">
        <ele>20</ele>
        <time>2012-03-12T19:20:26Z</time>
      </trkpt>
      <trkpt lat="59.9924093077" lon="23.4278311876">
        <ele>21.2</ele>
        <time>2012-03-12T19:20:33Z</time>
      </trkpt>
      <trkpt lat="59.9925284983" lon="23.4276086481">
        <ele>21.8</ele>
        <time>2012-03-12T19:20:40Z</time>
      </trkpt>
      <trkpt lat="59.9926168435" lon="23.4275292715">
        <ele>22</ele>
        <time>2012-03-12T19:20:44Z</time>
      </trkpt>
      <trkpt lat="59.9927600902" lon="23.427581826">
        <ele>22.2</ele>
        <time>2012-03-12T19:20:50Z</time>
      </trkpt>
      <trkpt lat="59.9928892553" lon="23.4275939798">
        <ele>22.2</ele>
        <time>2012-03-12T19:20:55Z</time>
      </trkpt>
      <trkpt lat="59.9930604137" lon="23.4275265055">
        <ele>22.2</ele>
        <time>2012-03-12T19:21:02Z</time>
      </trkpt>
      <trkpt lat="59.993186226" lon="23.4274849313">
        <ele>22.2</ele>
        <time>2012-03-12T19:21:07Z</time>
      </trkpt>
      <trkpt lat="59.9932088571" lon="23.4274674131">
        <ele>22</ele>
        <time>2012-03-12T19:21:08Z</time>
      </trkpt>
      <trkpt lat="59.993308937" lon="23.4272090829">
        <ele>21.2</ele>
        <time>2012-03-12T19:21:15Z</time>
      </trkpt>
      <trkpt lat="59.9933270419" lon="23.4271770641">
        <ele>21</ele>
        <time>2012-03-12T19:21:16Z</time>
      </trkpt>
      <trkpt lat="59.9934011379" lon="23.4271232523">
        <ele>20.8</ele>
        <time>2012-03-12T19:21:19Z</time>
      </trkpt>
      <trkpt lat="59.9935329014" lon="23.4269632418">
        <ele>20.6</ele>
        <time>2012-03-12T19:21:25Z</time>
      </trkpt>
      <trkpt lat="59.9936466437" lon="23.426780684">
        <ele>20.4</ele>
        <time>2012-03-12T19:21:31Z</time>
      </trkpt>
      <trkpt lat="59.9936658383" lon="23.4267657643">
        <ele>20.4</ele>
        <time>2012-03-12T19:21:32Z</time>
      </trkpt>
      <trkpt lat="59.9937361624" lon="23.4267572147">
        <ele>20.4</ele>
        <time>2012-03-12T19:21:35Z</time>
      </trkpt>
      <trkpt lat="59.9938059837" lon="23.4267008045">
        <ele>20.4</ele>
        <time>2012-03-12T19:21:38Z</time>
      </trkpt>
      <trkpt lat="59.9939091649" lon="23.4264752476">
        <ele>20.2</ele>
        <time>2012-03-12T19:21:44Z</time>
      </trkpt>
      <trkpt lat="59.9940039641" lon="23.4262327592">
        <ele>19.4</ele>
        <time>2012-03-12T19:21:50Z</time>
      </trkpt>
      <trkpt lat="59.9940680857" lon="23.4261257224">
        <ele>19</ele>
        <time>2012-03-12T19:21:53Z</time>
      </trkpt>
      <trkpt lat="59.9941148567" lon="23.426093955">
        <ele>19</ele>
        <time>2012-03-12T19:21:55Z</time>
      </trkpt>
      <trkpt lat="59.9942567622" lon="23.4262332621">
        <ele>18.6</ele>
        <time>2012-03-12T19:22:01Z</time>
      </trkpt>
      <trkpt lat="59.994350891" lon="23.4264571427">
        <ele>18.4</ele>
        <time>2012-03-12T19:22:07Z</time>
      </trkpt>
      <trkpt lat="59.9944979933" lon="23.4267100246">
        <ele>18.4</ele>
        <time>2012-03-12T19:22:14Z</time>
      </trkpt>
      <trkpt lat="59.9945839078" lon="23.4268531875">
        <ele>18.4</ele>
        <time>2012-03-12T19:22:18Z</time>
      </trkpt>
      <trkpt lat="59.9947471872" lon="23.4270336498">
        <ele>18.4</ele>
        <time>2012-03-12T19:22:25Z</time>
      </trkpt>
      <trkpt lat="59.9949141547" lon="23.4271908942">
        <ele>18.4</ele>
        <time>2012-03-12T19:22:32Z</time>
      </trkpt>
      <trkpt lat="59.995070058" lon="23.4273342247">
        <ele>18.4</ele>
        <time>2012-03-12T19:22:39Z</time>
      </trkpt>
      <trkpt lat="59.9952099519" lon="23.4274598694">
        <ele>18.4</ele>
        <time>2012-03-12T19:22:45Z</time>
      </trkpt>
      <trkpt lat="59.9953279691" lon="23.4275139326">
        <ele>18.4</ele>
        <time>2012-03-12T19:22:50Z</time>
      </trkpt>
      <trkpt lat="59.9954485008" lon="23.4275011922">
        <ele>18.4</ele>
        <time>2012-03-12T19:22:55Z</time>
      </trkpt>
      <trkpt lat="59.9956190725" lon="23.4273861087">
        <ele>18.4</ele>
        <time>2012-03-12T19:23:03Z</time>
      </trkpt>
      <trkpt lat="59.9957139556" lon="23.4272628947">
        <ele>18.4</ele>
        <time>2012-03-12T19:23:08Z</time>
      </trkpt>
      <trkpt lat="59.9958419472" lon="23.4270864557">
        <ele>18.4</ele>
        <time>2012-03-12T19:23:14Z</time>
      </trkpt>
      <trkpt lat="59.9959323879" lon="23.4269238469">
        <ele>18.4</ele>
        <time>2012-03-12T19:23:19Z</time>
      </trkpt>
      <trkpt lat="59.9959232516" lon="23.4268836976">
        <ele>18.4</ele>
        <time>2012-03-12T19:23:22Z</time>
      </trkpt>
      <trkpt lat="59.9958819288" lon="23.4269231763">
        <ele>18.4</ele>
        <time>2012-03-12T19:23:24Z</time>
      </trkpt>
      <trkpt lat="59.9957576253" lon="23.4271370824">
        <ele>18.4</ele>
        <time>2012-03-12T19:23:30Z</time>
      </trkpt>
      <trkpt lat="59.9956474033" lon="23.4272921476">
        <ele>18.4</ele>
        <time>2012-03-12T19:23:35Z</time>
      </trkpt>
      <trkpt lat="59.9955049948" lon="23.4274663235">
        <ele>18.4</ele>
        <time>2012-03-12T19:23:41Z</time>
      </trkpt>
      <trkpt lat="59.9953493429" lon="23.4275529085">
        <ele>18.4</ele>
        <time>2012-03-12T19:23:47Z</time>
      </trkpt>
      <trkpt lat="59.9951983011" lon="23.4275104961">
        <ele>18.4</ele>
        <time>2012-03-12T19:23:52Z</time>
      </trkpt>
      <trkpt lat="59.9950124744" lon="23.4273830074">
        <ele>18.4</ele>
        <time>2012-03-12T19:23:59Z</time>
      </trkpt>
      <trkpt lat="59.9949211116" lon="23.4272864479">
        <ele>18.4</ele>
        <time>2012-03-12T19:24:03Z</time>
      </trkpt>
    </trkseg>
  </trk>
</gpx>